<?xml version="1.0" encoding="UTF-8" standalone="no" ?>
<gpx xmlns="http://www.topografix.com/GPX/1/1" xmlns:xsi="http://www.w3.org/2001/XMLSchema-instance" xsi:schemaLocation="http://www.topografix.com/GPX/1/1 http://www.topografix.com/GPX/1/1/gpx.xsd" version="1.1" creator="VisuGPX - https://www.visugpx.com">
  <metadata>
    <name>VTT2023p60-14244191</name>
  </metadata>
  <wpt lat="45.87141" lon="2.99377">
    <ele>773.5</ele>
    <name><![CDATA[Ravitaillement]]></name>
    <desc><![CDATA[]]></desc>
  </wpt>
  <wpt lat="45.90345" lon="2.98519">
    <ele>759.5</ele>
    <name><![CDATA[Ravitaillement]]></name>
    <desc><![CDATA[]]></desc>
  </wpt>
  <trk>
    <name><![CDATA[VTT2023p60-14244191]]></name>
    <trkseg>
      <trkpt lat="45.87631" lon="3.07989">
        <ele>384</ele>
        <time>2023-04-28T20:20:13Z</time>
      </trkpt>
      <trkpt lat="45.87586" lon="3.07831">
        <ele>385</ele>
        <time>2023-04-28T20:20:41Z</time>
      </trkpt>
      <trkpt lat="45.87508" lon="3.07662">
        <ele>388</ele>
        <time>2023-04-28T20:21:14Z</time>
      </trkpt>
      <trkpt lat="45.87687" lon="3.07579">
        <ele>387</ele>
        <time>2023-04-28T20:21:58Z</time>
      </trkpt>
      <trkpt lat="45.87566" lon="3.07384">
        <ele>392</ele>
        <time>2023-04-28T20:22:40Z</time>
      </trkpt>
      <trkpt lat="45.87496" lon="3.07193">
        <ele>395</ele>
        <time>2023-04-28T20:23:15Z</time>
      </trkpt>
      <trkpt lat="45.87448" lon="3.0694">
        <ele>396</ele>
        <time>2023-04-28T20:23:58Z</time>
      </trkpt>
      <trkpt lat="45.87395" lon="3.06713">
        <ele>400</ele>
        <time>2023-04-28T20:24:37Z</time>
      </trkpt>
      <trkpt lat="45.8745" lon="3.06481">
        <ele>405</ele>
        <time>2023-04-28T20:25:17Z</time>
      </trkpt>
      <trkpt lat="45.87405" lon="3.06411">
        <ele>409</ele>
        <time>2023-04-28T20:25:32Z</time>
      </trkpt>
      <trkpt lat="45.87366" lon="3.0636">
        <ele>414</ele>
        <time>2023-04-28T20:25:44Z</time>
      </trkpt>
      <trkpt lat="45.8725" lon="3.06284">
        <ele>416</ele>
        <time>2023-04-28T20:26:14Z</time>
      </trkpt>
      <trkpt lat="45.87192" lon="3.06256">
        <ele>416</ele>
        <time>2023-04-28T20:26:28Z</time>
      </trkpt>
      <trkpt lat="45.87245" lon="3.06234">
        <ele>421</ele>
        <time>2023-04-28T20:26:41Z</time>
      </trkpt>
      <trkpt lat="45.87287" lon="3.06235">
        <ele>423</ele>
        <time>2023-04-28T20:26:51Z</time>
      </trkpt>
      <trkpt lat="45.87334" lon="3.06269">
        <ele>422</ele>
        <time>2023-04-28T20:27:03Z</time>
      </trkpt>
      <trkpt lat="45.87404" lon="3.06291">
        <ele>423</ele>
        <time>2023-04-28T20:27:20Z</time>
      </trkpt>
      <trkpt lat="45.87482" lon="3.0632">
        <ele>423</ele>
        <time>2023-04-28T20:27:39Z</time>
      </trkpt>
      <trkpt lat="45.87551" lon="3.06291">
        <ele>424</ele>
        <time>2023-04-28T20:27:56Z</time>
      </trkpt>
      <trkpt lat="45.87586" lon="3.06205">
        <ele>430</ele>
        <time>2023-04-28T20:28:12Z</time>
      </trkpt>
      <trkpt lat="45.87663" lon="3.06108">
        <ele>434</ele>
        <time>2023-04-28T20:28:36Z</time>
      </trkpt>
      <trkpt lat="45.87695" lon="3.06027">
        <ele>435</ele>
        <time>2023-04-28T20:28:51Z</time>
      </trkpt>
      <trkpt lat="45.87765" lon="3.0595">
        <ele>436</ele>
        <time>2023-04-28T20:29:12Z</time>
      </trkpt>
      <trkpt lat="45.87795" lon="3.05861">
        <ele>438</ele>
        <time>2023-04-28T20:29:28Z</time>
      </trkpt>
      <trkpt lat="45.87749" lon="3.05718">
        <ele>443</ele>
        <time>2023-04-28T20:29:53Z</time>
      </trkpt>
      <trkpt lat="45.877" lon="3.05621">
        <ele>447</ele>
        <time>2023-04-28T20:30:13Z</time>
      </trkpt>
      <trkpt lat="45.8769" lon="3.05545">
        <ele>449</ele>
        <time>2023-04-28T20:30:25Z</time>
      </trkpt>
      <trkpt lat="45.87673" lon="3.05562">
        <ele>451</ele>
        <time>2023-04-28T20:30:30Z</time>
      </trkpt>
      <trkpt lat="45.87707" lon="3.05495">
        <ele>449</ele>
        <time>2023-04-28T20:30:44Z</time>
      </trkpt>
      <trkpt lat="45.8783" lon="3.05402">
        <ele>453</ele>
        <time>2023-04-28T20:31:16Z</time>
      </trkpt>
      <trkpt lat="45.87869" lon="3.05361">
        <ele>454</ele>
        <time>2023-04-28T20:31:27Z</time>
      </trkpt>
      <trkpt lat="45.87919" lon="3.05236">
        <ele>458</ele>
        <time>2023-04-28T20:31:51Z</time>
      </trkpt>
      <trkpt lat="45.87963" lon="3.05075">
        <ele>461</ele>
        <time>2023-04-28T20:32:19Z</time>
      </trkpt>
      <trkpt lat="45.87944" lon="3.04996">
        <ele>462</ele>
        <time>2023-04-28T20:32:33Z</time>
      </trkpt>
      <trkpt lat="45.87889" lon="3.04881">
        <ele>465</ele>
        <time>2023-04-28T20:32:55Z</time>
      </trkpt>
      <trkpt lat="45.87888" lon="3.04795">
        <ele>466</ele>
        <time>2023-04-28T20:33:09Z</time>
      </trkpt>
      <trkpt lat="45.87847" lon="3.04764">
        <ele>473</ele>
        <time>2023-04-28T20:33:20Z</time>
      </trkpt>
      <trkpt lat="45.87757" lon="3.04802">
        <ele>476</ele>
        <time>2023-04-28T20:33:42Z</time>
      </trkpt>
      <trkpt lat="45.87649" lon="3.04886">
        <ele>471</ele>
        <time>2023-04-28T20:34:11Z</time>
      </trkpt>
      <trkpt lat="45.87562" lon="3.04628">
        <ele>474</ele>
        <time>2023-04-28T20:34:57Z</time>
      </trkpt>
      <trkpt lat="45.8748" lon="3.04675">
        <ele>472</ele>
        <time>2023-04-28T20:35:18Z</time>
      </trkpt>
      <trkpt lat="45.87486" lon="3.04869">
        <ele>469</ele>
        <time>2023-04-28T20:35:50Z</time>
      </trkpt>
      <trkpt lat="45.87494" lon="3.04973">
        <ele>465</ele>
        <time>2023-04-28T20:36:07Z</time>
      </trkpt>
      <trkpt lat="45.87489" lon="3.05049">
        <ele>464</ele>
        <time>2023-04-28T20:36:19Z</time>
      </trkpt>
      <trkpt lat="45.87445" lon="3.05143">
        <ele>464</ele>
        <time>2023-04-28T20:36:37Z</time>
      </trkpt>
      <trkpt lat="45.87407" lon="3.052">
        <ele>463</ele>
        <time>2023-04-28T20:36:50Z</time>
      </trkpt>
      <trkpt lat="45.87377" lon="3.05279">
        <ele>463</ele>
        <time>2023-04-28T20:37:05Z</time>
      </trkpt>
      <trkpt lat="45.87226" lon="3.05386">
        <ele>462</ele>
        <time>2023-04-28T20:37:44Z</time>
      </trkpt>
      <trkpt lat="45.87192" lon="3.05319">
        <ele>462</ele>
        <time>2023-04-28T20:37:58Z</time>
      </trkpt>
      <trkpt lat="45.87207" lon="3.05249">
        <ele>466</ele>
        <time>2023-04-28T20:38:10Z</time>
      </trkpt>
      <trkpt lat="45.87207" lon="3.05165">
        <ele>465</ele>
        <time>2023-04-28T20:38:23Z</time>
      </trkpt>
      <trkpt lat="45.8723" lon="3.05073">
        <ele>473</ele>
        <time>2023-04-28T20:38:39Z</time>
      </trkpt>
      <trkpt lat="45.87322" lon="3.04965">
        <ele>477</ele>
        <time>2023-04-28T20:39:07Z</time>
      </trkpt>
      <trkpt lat="45.87254" lon="3.04751">
        <ele>483</ele>
        <time>2023-04-28T20:39:45Z</time>
      </trkpt>
      <trkpt lat="45.87225" lon="3.04595">
        <ele>484</ele>
        <time>2023-04-28T20:40:11Z</time>
      </trkpt>
      <trkpt lat="45.87143" lon="3.0465">
        <ele>486</ele>
        <time>2023-04-28T20:40:32Z</time>
      </trkpt>
      <trkpt lat="45.87096" lon="3.04647">
        <ele>485</ele>
        <time>2023-04-28T20:40:43Z</time>
      </trkpt>
      <trkpt lat="45.87052" lon="3.04598">
        <ele>485</ele>
        <time>2023-04-28T20:40:56Z</time>
      </trkpt>
      <trkpt lat="45.87024" lon="3.04559">
        <ele>485</ele>
        <time>2023-04-28T20:41:06Z</time>
      </trkpt>
      <trkpt lat="45.87004" lon="3.04492">
        <ele>489</ele>
        <time>2023-04-28T20:41:17Z</time>
      </trkpt>
      <trkpt lat="45.86966" lon="3.04413">
        <ele>491</ele>
        <time>2023-04-28T20:41:33Z</time>
      </trkpt>
      <trkpt lat="45.8696" lon="3.04261">
        <ele>496</ele>
        <time>2023-04-28T20:41:58Z</time>
      </trkpt>
      <trkpt lat="45.86967" lon="3.04167">
        <ele>497</ele>
        <time>2023-04-28T20:42:13Z</time>
      </trkpt>
      <trkpt lat="45.87025" lon="3.0403">
        <ele>499</ele>
        <time>2023-04-28T20:42:39Z</time>
      </trkpt>
      <trkpt lat="45.8704" lon="3.03961">
        <ele>499</ele>
        <time>2023-04-28T20:42:51Z</time>
      </trkpt>
      <trkpt lat="45.87006" lon="3.03835">
        <ele>504</ele>
        <time>2023-04-28T20:43:13Z</time>
      </trkpt>
      <trkpt lat="45.87002" lon="3.0375">
        <ele>508</ele>
        <time>2023-04-28T20:43:27Z</time>
      </trkpt>
      <trkpt lat="45.86967" lon="3.03715">
        <ele>510</ele>
        <time>2023-04-28T20:43:37Z</time>
      </trkpt>
      <trkpt lat="45.86942" lon="3.03648">
        <ele>519</ele>
        <time>2023-04-28T20:43:49Z</time>
      </trkpt>
      <trkpt lat="45.86904" lon="3.03616">
        <ele>524</ele>
        <time>2023-04-28T20:43:59Z</time>
      </trkpt>
      <trkpt lat="45.86836" lon="3.03592">
        <ele>526</ele>
        <time>2023-04-28T20:44:16Z</time>
      </trkpt>
      <trkpt lat="45.86801" lon="3.03548">
        <ele>527</ele>
        <time>2023-04-28T20:44:27Z</time>
      </trkpt>
      <trkpt lat="45.8679" lon="3.03477">
        <ele>530</ele>
        <time>2023-04-28T20:44:38Z</time>
      </trkpt>
      <trkpt lat="45.86825" lon="3.0354">
        <ele>530</ele>
        <time>2023-04-28T20:44:52Z</time>
      </trkpt>
      <trkpt lat="45.86875" lon="3.03556">
        <ele>530</ele>
        <time>2023-04-28T20:45:04Z</time>
      </trkpt>
      <trkpt lat="45.86914" lon="3.0354">
        <ele>533</ele>
        <time>2023-04-28T20:45:13Z</time>
      </trkpt>
      <trkpt lat="45.8695" lon="3.03509">
        <ele>534</ele>
        <time>2023-04-28T20:45:23Z</time>
      </trkpt>
      <trkpt lat="45.8698" lon="3.03452">
        <ele>538</ele>
        <time>2023-04-28T20:45:34Z</time>
      </trkpt>
      <trkpt lat="45.87041" lon="3.03389">
        <ele>541</ele>
        <time>2023-04-28T20:45:52Z</time>
      </trkpt>
      <trkpt lat="45.8712" lon="3.03378">
        <ele>546</ele>
        <time>2023-04-28T20:46:10Z</time>
      </trkpt>
      <trkpt lat="45.87175" lon="3.03351">
        <ele>555</ele>
        <time>2023-04-28T20:46:24Z</time>
      </trkpt>
      <trkpt lat="45.87194" lon="3.03295">
        <ele>558</ele>
        <time>2023-04-28T20:46:34Z</time>
      </trkpt>
      <trkpt lat="45.87199" lon="3.0322">
        <ele>560</ele>
        <time>2023-04-28T20:46:46Z</time>
      </trkpt>
      <trkpt lat="45.8718" lon="3.03149">
        <ele>561</ele>
        <time>2023-04-28T20:46:59Z</time>
      </trkpt>
      <trkpt lat="45.87196" lon="3.02909">
        <ele>580</ele>
        <time>2023-04-28T20:47:38Z</time>
      </trkpt>
      <trkpt lat="45.87243" lon="3.02944">
        <ele>582</ele>
        <time>2023-04-28T20:47:50Z</time>
      </trkpt>
      <trkpt lat="45.87309" lon="3.03122">
        <ele>576</ele>
        <time>2023-04-28T20:48:23Z</time>
      </trkpt>
      <trkpt lat="45.87349" lon="3.03188">
        <ele>578</ele>
        <time>2023-04-28T20:48:37Z</time>
      </trkpt>
      <trkpt lat="45.874" lon="3.03215">
        <ele>583</ele>
        <time>2023-04-28T20:48:50Z</time>
      </trkpt>
      <trkpt lat="45.87444" lon="3.03193">
        <ele>585</ele>
        <time>2023-04-28T20:49:01Z</time>
      </trkpt>
      <trkpt lat="45.87476" lon="3.03173">
        <ele>585</ele>
        <time>2023-04-28T20:49:09Z</time>
      </trkpt>
      <trkpt lat="45.87518" lon="3.03135">
        <ele>588</ele>
        <time>2023-04-28T20:49:21Z</time>
      </trkpt>
      <trkpt lat="45.87549" lon="3.03076">
        <ele>591</ele>
        <time>2023-04-28T20:49:33Z</time>
      </trkpt>
      <trkpt lat="45.87556" lon="3.03005">
        <ele>595</ele>
        <time>2023-04-28T20:49:44Z</time>
      </trkpt>
      <trkpt lat="45.87538" lon="3.02923">
        <ele>597</ele>
        <time>2023-04-28T20:49:58Z</time>
      </trkpt>
      <trkpt lat="45.87465" lon="3.02773">
        <ele>593</ele>
        <time>2023-04-28T20:50:28Z</time>
      </trkpt>
      <trkpt lat="45.87463" lon="3.02734">
        <ele>595</ele>
        <time>2023-04-28T20:50:34Z</time>
      </trkpt>
      <trkpt lat="45.87471" lon="3.027">
        <ele>596</ele>
        <time>2023-04-28T20:50:40Z</time>
      </trkpt>
      <trkpt lat="45.87488" lon="3.02659">
        <ele>598</ele>
        <time>2023-04-28T20:50:48Z</time>
      </trkpt>
      <trkpt lat="45.87528" lon="3.02616">
        <ele>600</ele>
        <time>2023-04-28T20:51:00Z</time>
      </trkpt>
      <trkpt lat="45.87574" lon="3.0259">
        <ele>600</ele>
        <time>2023-04-28T20:51:11Z</time>
      </trkpt>
      <trkpt lat="45.8761" lon="3.02533">
        <ele>605</ele>
        <time>2023-04-28T20:51:24Z</time>
      </trkpt>
      <trkpt lat="45.87619" lon="3.02465">
        <ele>608</ele>
        <time>2023-04-28T20:51:35Z</time>
      </trkpt>
      <trkpt lat="45.87612" lon="3.02365">
        <ele>608</ele>
        <time>2023-04-28T20:51:51Z</time>
      </trkpt>
      <trkpt lat="45.87626" lon="3.02278">
        <ele>609</ele>
        <time>2023-04-28T20:52:06Z</time>
      </trkpt>
      <trkpt lat="45.87732" lon="3.02195">
        <ele>611</ele>
        <time>2023-04-28T20:52:34Z</time>
      </trkpt>
      <trkpt lat="45.87756" lon="3.02179">
        <ele>610</ele>
        <time>2023-04-28T20:52:40Z</time>
      </trkpt>
      <trkpt lat="45.87769" lon="3.02144">
        <ele>610</ele>
        <time>2023-04-28T20:52:47Z</time>
      </trkpt>
      <trkpt lat="45.87779" lon="3.02075">
        <ele>611</ele>
        <time>2023-04-28T20:52:58Z</time>
      </trkpt>
      <trkpt lat="45.87757" lon="3.02009">
        <ele>620</ele>
        <time>2023-04-28T20:53:10Z</time>
      </trkpt>
      <trkpt lat="45.87689" lon="3.01912">
        <ele>622</ele>
        <time>2023-04-28T20:53:32Z</time>
      </trkpt>
      <trkpt lat="45.87706" lon="3.01796">
        <ele>639</ele>
        <time>2023-04-28T20:53:52Z</time>
      </trkpt>
      <trkpt lat="45.87782" lon="3.01638">
        <ele>650</ele>
        <time>2023-04-28T20:54:23Z</time>
      </trkpt>
      <trkpt lat="45.87844" lon="3.0161">
        <ele>662</ele>
        <time>2023-04-28T20:54:38Z</time>
      </trkpt>
      <trkpt lat="45.87968" lon="3.01632">
        <ele>671</ele>
        <time>2023-04-28T20:55:07Z</time>
      </trkpt>
      <trkpt lat="45.87927" lon="3.01506">
        <ele>681</ele>
        <time>2023-04-28T20:55:30Z</time>
      </trkpt>
      <trkpt lat="45.87931" lon="3.0136">
        <ele>699</ele>
        <time>2023-04-28T20:55:54Z</time>
      </trkpt>
      <trkpt lat="45.88003" lon="3.01102">
        <ele>721</ele>
        <time>2023-04-28T20:56:39Z</time>
      </trkpt>
      <trkpt lat="45.87856" lon="3.00854">
        <ele>715</ele>
        <time>2023-04-28T20:57:32Z</time>
      </trkpt>
      <trkpt lat="45.87732" lon="3.00704">
        <ele>706</ele>
        <time>2023-04-28T20:58:10Z</time>
      </trkpt>
      <trkpt lat="45.87695" lon="3.00461">
        <ele>704</ele>
        <time>2023-04-28T20:58:50Z</time>
      </trkpt>
      <trkpt lat="45.87611" lon="3.00287">
        <ele>706</ele>
        <time>2023-04-28T20:59:25Z</time>
      </trkpt>
      <trkpt lat="45.87563" lon="2.99971">
        <ele>737</ele>
        <time>2023-04-28T21:00:17Z</time>
      </trkpt>
      <trkpt lat="45.87503" lon="2.99928">
        <ele>737</ele>
        <time>2023-04-28T21:00:33Z</time>
      </trkpt>
      <trkpt lat="45.87469" lon="2.99985">
        <ele>734</ele>
        <time>2023-04-28T21:00:45Z</time>
      </trkpt>
      <trkpt lat="45.87526" lon="3.00103">
        <ele>725</ele>
        <time>2023-04-28T21:01:08Z</time>
      </trkpt>
      <trkpt lat="45.87518" lon="3.00219">
        <ele>719</ele>
        <time>2023-04-28T21:01:27Z</time>
      </trkpt>
      <trkpt lat="45.87513" lon="3.00471">
        <ele>705</ele>
        <time>2023-04-28T21:02:08Z</time>
      </trkpt>
      <trkpt lat="45.87429" lon="3.0058">
        <ele>704</ele>
        <time>2023-04-28T21:02:35Z</time>
      </trkpt>
      <trkpt lat="45.87407" lon="3.00736">
        <ele>695</ele>
        <time>2023-04-28T21:03:01Z</time>
      </trkpt>
      <trkpt lat="45.87428" lon="3.00805">
        <ele>693</ele>
        <time>2023-04-28T21:03:13Z</time>
      </trkpt>
      <trkpt lat="45.87408" lon="3.00877">
        <ele>688</ele>
        <time>2023-04-28T21:03:25Z</time>
      </trkpt>
      <trkpt lat="45.87451" lon="3.0097">
        <ele>689</ele>
        <time>2023-04-28T21:03:44Z</time>
      </trkpt>
      <trkpt lat="45.87504" lon="3.01017">
        <ele>693</ele>
        <time>2023-04-28T21:03:58Z</time>
      </trkpt>
      <trkpt lat="45.87435" lon="3.0114">
        <ele>690</ele>
        <time>2023-04-28T21:04:24Z</time>
      </trkpt>
      <trkpt lat="45.87387" lon="3.01068">
        <ele>685</ele>
        <time>2023-04-28T21:04:40Z</time>
      </trkpt>
      <trkpt lat="45.87245" lon="3.01172">
        <ele>669</ele>
        <time>2023-04-28T21:05:17Z</time>
      </trkpt>
      <trkpt lat="45.8719" lon="3.01161">
        <ele>669</ele>
        <time>2023-04-28T21:05:30Z</time>
      </trkpt>
      <trkpt lat="45.87171" lon="3.01124">
        <ele>671</ele>
        <time>2023-04-28T21:05:38Z</time>
      </trkpt>
      <trkpt lat="45.87159" lon="3.01074">
        <ele>674</ele>
        <time>2023-04-28T21:05:46Z</time>
      </trkpt>
      <trkpt lat="45.87156" lon="3.01027">
        <ele>676</ele>
        <time>2023-04-28T21:05:54Z</time>
      </trkpt>
      <trkpt lat="45.87137" lon="3.00874">
        <ele>684</ele>
        <time>2023-04-28T21:06:19Z</time>
      </trkpt>
      <trkpt lat="45.87121" lon="3.0079">
        <ele>689</ele>
        <time>2023-04-28T21:06:33Z</time>
      </trkpt>
      <trkpt lat="45.87097" lon="3.0075">
        <ele>691</ele>
        <time>2023-04-28T21:06:42Z</time>
      </trkpt>
      <trkpt lat="45.8707" lon="3.00882">
        <ele>684</ele>
        <time>2023-04-28T21:07:04Z</time>
      </trkpt>
      <trkpt lat="45.87013" lon="3.00988">
        <ele>681</ele>
        <time>2023-04-28T21:07:26Z</time>
      </trkpt>
      <trkpt lat="45.86999" lon="3.01042">
        <ele>677</ele>
        <time>2023-04-28T21:07:36Z</time>
      </trkpt>
      <trkpt lat="45.86971" lon="3.01028">
        <ele>679</ele>
        <time>2023-04-28T21:07:42Z</time>
      </trkpt>
      <trkpt lat="45.86964" lon="3.00972">
        <ele>684</ele>
        <time>2023-04-28T21:07:52Z</time>
      </trkpt>
      <trkpt lat="45.86952" lon="3.00933">
        <ele>687</ele>
        <time>2023-04-28T21:07:59Z</time>
      </trkpt>
      <trkpt lat="45.86937" lon="3.00903">
        <ele>689</ele>
        <time>2023-04-28T21:08:05Z</time>
      </trkpt>
      <trkpt lat="45.86933" lon="3.00874">
        <ele>692</ele>
        <time>2023-04-28T21:08:09Z</time>
      </trkpt>
      <trkpt lat="45.86915" lon="3.00807">
        <ele>697</ele>
        <time>2023-04-28T21:08:21Z</time>
      </trkpt>
      <trkpt lat="45.8689" lon="3.00776">
        <ele>702</ele>
        <time>2023-04-28T21:08:29Z</time>
      </trkpt>
      <trkpt lat="45.86888" lon="3.00719">
        <ele>706</ele>
        <time>2023-04-28T21:08:38Z</time>
      </trkpt>
      <trkpt lat="45.86893" lon="3.00631">
        <ele>710</ele>
        <time>2023-04-28T21:08:52Z</time>
      </trkpt>
      <trkpt lat="45.86881" lon="3.00543">
        <ele>717</ele>
        <time>2023-04-28T21:09:07Z</time>
      </trkpt>
      <trkpt lat="45.86882" lon="3.00504">
        <ele>720</ele>
        <time>2023-04-28T21:09:13Z</time>
      </trkpt>
      <trkpt lat="45.86886" lon="3.00468">
        <ele>721</ele>
        <time>2023-04-28T21:09:19Z</time>
      </trkpt>
      <trkpt lat="45.86873" lon="3.00428">
        <ele>724</ele>
        <time>2023-04-28T21:09:27Z</time>
      </trkpt>
      <trkpt lat="45.86783" lon="3.00415">
        <ele>734</ele>
        <time>2023-04-28T21:09:48Z</time>
      </trkpt>
      <trkpt lat="45.86755" lon="3.00406">
        <ele>737</ele>
        <time>2023-04-28T21:09:54Z</time>
      </trkpt>
      <trkpt lat="45.86706" lon="3.00398">
        <ele>741</ele>
        <time>2023-04-28T21:10:06Z</time>
      </trkpt>
      <trkpt lat="45.86762" lon="3.00299">
        <ele>743</ele>
        <time>2023-04-28T21:10:27Z</time>
      </trkpt>
      <trkpt lat="45.86824" lon="3.00124">
        <ele>743</ele>
        <time>2023-04-28T21:10:59Z</time>
      </trkpt>
      <trkpt lat="45.8685" lon="3.00023">
        <ele>745</ele>
        <time>2023-04-28T21:11:16Z</time>
      </trkpt>
      <trkpt lat="45.86886" lon="2.99942">
        <ele>747</ele>
        <time>2023-04-28T21:11:32Z</time>
      </trkpt>
      <trkpt lat="45.86908" lon="2.99927">
        <ele>746</ele>
        <time>2023-04-28T21:11:37Z</time>
      </trkpt>
      <trkpt lat="45.86954" lon="2.99922">
        <ele>744</ele>
        <time>2023-04-28T21:11:48Z</time>
      </trkpt>
      <trkpt lat="45.86989" lon="2.99915">
        <ele>743</ele>
        <time>2023-04-28T21:11:56Z</time>
      </trkpt>
      <trkpt lat="45.87078" lon="2.99846">
        <ele>743</ele>
        <time>2023-04-28T21:12:20Z</time>
      </trkpt>
      <trkpt lat="45.87078" lon="2.99814">
        <ele>745</ele>
        <time>2023-04-28T21:12:25Z</time>
      </trkpt>
      <trkpt lat="45.87071" lon="2.99753">
        <ele>748</ele>
        <time>2023-04-28T21:12:35Z</time>
      </trkpt>
      <trkpt lat="45.87083" lon="2.99702">
        <ele>750</ele>
        <time>2023-04-28T21:12:44Z</time>
      </trkpt>
      <trkpt lat="45.87087" lon="2.99646">
        <ele>753</ele>
        <time>2023-04-28T21:12:53Z</time>
      </trkpt>
      <trkpt lat="45.87079" lon="2.99563">
        <ele>759</ele>
        <time>2023-04-28T21:13:07Z</time>
      </trkpt>
      <trkpt lat="45.87084" lon="2.99522">
        <ele>762</ele>
        <time>2023-04-28T21:13:14Z</time>
      </trkpt>
      <trkpt lat="45.87088" lon="2.99444">
        <ele>770</ele>
        <time>2023-04-28T21:13:26Z</time>
      </trkpt>
      <trkpt lat="45.87079" lon="2.99424">
        <ele>772</ele>
        <time>2023-04-28T21:13:30Z</time>
      </trkpt>
      <trkpt lat="45.87072" lon="2.99421">
        <ele>773</ele>
        <time>2023-04-28T21:13:32Z</time>
      </trkpt>
      <trkpt lat="45.87118" lon="2.994">
        <ele>774</ele>
        <time>2023-04-28T21:13:43Z</time>
      </trkpt>
      <trkpt lat="45.87148" lon="2.99369">
        <ele>776</ele>
        <time>2023-04-28T21:13:52Z</time>
      </trkpt>
      <trkpt lat="45.87164" lon="2.99342">
        <ele>777</ele>
        <time>2023-04-28T21:13:58Z</time>
      </trkpt>
      <trkpt lat="45.87166" lon="2.99326">
        <ele>777</ele>
        <time>2023-04-28T21:14:00Z</time>
      </trkpt>
      <trkpt lat="45.87152" lon="2.99254">
        <ele>780</ele>
        <time>2023-04-28T21:14:12Z</time>
      </trkpt>
      <trkpt lat="45.8713" lon="2.99225">
        <ele>783</ele>
        <time>2023-04-28T21:14:19Z</time>
      </trkpt>
      <trkpt lat="45.87113" lon="2.99178">
        <ele>785</ele>
        <time>2023-04-28T21:14:28Z</time>
      </trkpt>
      <trkpt lat="45.87111" lon="2.9916">
        <ele>786</ele>
        <time>2023-04-28T21:14:31Z</time>
      </trkpt>
      <trkpt lat="45.87121" lon="2.99121">
        <ele>789</ele>
        <time>2023-04-28T21:14:38Z</time>
      </trkpt>
      <trkpt lat="45.87142" lon="2.9909">
        <ele>790</ele>
        <time>2023-04-28T21:14:45Z</time>
      </trkpt>
      <trkpt lat="45.87154" lon="2.99062">
        <ele>791</ele>
        <time>2023-04-28T21:14:50Z</time>
      </trkpt>
      <trkpt lat="45.87152" lon="2.9907">
        <ele>791</ele>
        <time>2023-04-28T21:14:51Z</time>
      </trkpt>
      <trkpt lat="45.87168" lon="2.99052">
        <ele>791</ele>
        <time>2023-04-28T21:14:56Z</time>
      </trkpt>
      <trkpt lat="45.87221" lon="2.99007">
        <ele>787</ele>
        <time>2023-04-28T21:15:11Z</time>
      </trkpt>
      <trkpt lat="45.87229" lon="2.99006">
        <ele>786</ele>
        <time>2023-04-28T21:15:12Z</time>
      </trkpt>
      <trkpt lat="45.87265" lon="2.99037">
        <ele>783</ele>
        <time>2023-04-28T21:15:22Z</time>
      </trkpt>
      <trkpt lat="45.87269" lon="2.99017">
        <ele>783</ele>
        <time>2023-04-28T21:15:26Z</time>
      </trkpt>
      <trkpt lat="45.87269" lon="2.99">
        <ele>784</ele>
        <time>2023-04-28T21:15:28Z</time>
      </trkpt>
      <trkpt lat="45.8726" lon="2.98936">
        <ele>786</ele>
        <time>2023-04-28T21:15:39Z</time>
      </trkpt>
      <trkpt lat="45.87268" lon="2.98763">
        <ele>789</ele>
        <time>2023-04-28T21:16:07Z</time>
      </trkpt>
      <trkpt lat="45.87265" lon="2.98707">
        <ele>791</ele>
        <time>2023-04-28T21:16:16Z</time>
      </trkpt>
      <trkpt lat="45.87269" lon="2.98633">
        <ele>793</ele>
        <time>2023-04-28T21:16:28Z</time>
      </trkpt>
      <trkpt lat="45.8729" lon="2.98567">
        <ele>793</ele>
        <time>2023-04-28T21:16:40Z</time>
      </trkpt>
      <trkpt lat="45.87246" lon="2.98512">
        <ele>796</ele>
        <time>2023-04-28T21:16:54Z</time>
      </trkpt>
      <trkpt lat="45.87175" lon="2.9848">
        <ele>803</ele>
        <time>2023-04-28T21:17:11Z</time>
      </trkpt>
      <trkpt lat="45.87139" lon="2.98471">
        <ele>806</ele>
        <time>2023-04-28T21:17:20Z</time>
      </trkpt>
      <trkpt lat="45.87109" lon="2.98451">
        <ele>809</ele>
        <time>2023-04-28T21:17:27Z</time>
      </trkpt>
      <trkpt lat="45.87063" lon="2.98427">
        <ele>811</ele>
        <time>2023-04-28T21:17:39Z</time>
      </trkpt>
      <trkpt lat="45.87033" lon="2.98399">
        <ele>812</ele>
        <time>2023-04-28T21:17:47Z</time>
      </trkpt>
      <trkpt lat="45.87003" lon="2.98375">
        <ele>812</ele>
        <time>2023-04-28T21:17:55Z</time>
      </trkpt>
      <trkpt lat="45.86972" lon="2.98365">
        <ele>813</ele>
        <time>2023-04-28T21:18:03Z</time>
      </trkpt>
      <trkpt lat="45.86924" lon="2.98372">
        <ele>814</ele>
        <time>2023-04-28T21:18:14Z</time>
      </trkpt>
      <trkpt lat="45.86902" lon="2.98368">
        <ele>815</ele>
        <time>2023-04-28T21:18:19Z</time>
      </trkpt>
      <trkpt lat="45.86875" lon="2.98346">
        <ele>815</ele>
        <time>2023-04-28T21:18:26Z</time>
      </trkpt>
      <trkpt lat="45.86858" lon="2.98316">
        <ele>816</ele>
        <time>2023-04-28T21:18:33Z</time>
      </trkpt>
      <trkpt lat="45.86856" lon="2.98317">
        <ele>816</ele>
        <time>2023-04-28T21:18:33Z</time>
      </trkpt>
      <trkpt lat="45.86811" lon="2.98128">
        <ele>824</ele>
        <time>2023-04-28T21:19:06Z</time>
      </trkpt>
      <trkpt lat="45.86752" lon="2.98062">
        <ele>824</ele>
        <time>2023-04-28T21:19:23Z</time>
      </trkpt>
      <trkpt lat="45.86621" lon="2.9803">
        <ele>835</ele>
        <time>2023-04-28T21:19:54Z</time>
      </trkpt>
      <trkpt lat="45.86507" lon="2.97891">
        <ele>844</ele>
        <time>2023-04-28T21:20:29Z</time>
      </trkpt>
      <trkpt lat="45.86451" lon="2.97846">
        <ele>848</ele>
        <time>2023-04-28T21:20:44Z</time>
      </trkpt>
      <trkpt lat="45.86391" lon="2.9778">
        <ele>850</ele>
        <time>2023-04-28T21:21:02Z</time>
      </trkpt>
      <trkpt lat="45.8627" lon="2.9772">
        <ele>857</ele>
        <time>2023-04-28T21:21:32Z</time>
      </trkpt>
      <trkpt lat="45.86185" lon="2.97574">
        <ele>856</ele>
        <time>2023-04-28T21:22:02Z</time>
      </trkpt>
      <trkpt lat="45.86117" lon="2.97657">
        <ele>861</ele>
        <time>2023-04-28T21:22:23Z</time>
      </trkpt>
      <trkpt lat="45.86029" lon="2.97758">
        <ele>866</ele>
        <time>2023-04-28T21:22:50Z</time>
      </trkpt>
      <trkpt lat="45.85961" lon="2.97893">
        <ele>881</ele>
        <time>2023-04-28T21:23:17Z</time>
      </trkpt>
      <trkpt lat="45.8588" lon="2.97941">
        <ele>888</ele>
        <time>2023-04-28T21:23:37Z</time>
      </trkpt>
      <trkpt lat="45.85805" lon="2.97915">
        <ele>886</ele>
        <time>2023-04-28T21:23:55Z</time>
      </trkpt>
      <trkpt lat="45.85791" lon="2.97758">
        <ele>885</ele>
        <time>2023-04-28T21:24:21Z</time>
      </trkpt>
      <trkpt lat="45.85857" lon="2.97607">
        <ele>874</ele>
        <time>2023-04-28T21:24:50Z</time>
      </trkpt>
      <trkpt lat="45.8592" lon="2.97403">
        <ele>867</ele>
        <time>2023-04-28T21:25:26Z</time>
      </trkpt>
      <trkpt lat="45.85983" lon="2.97346">
        <ele>866</ele>
        <time>2023-04-28T21:25:44Z</time>
      </trkpt>
      <trkpt lat="45.86007" lon="2.97281">
        <ele>868</ele>
        <time>2023-04-28T21:25:56Z</time>
      </trkpt>
      <trkpt lat="45.8604" lon="2.97204">
        <ele>868</ele>
        <time>2023-04-28T21:26:10Z</time>
      </trkpt>
      <trkpt lat="45.86079" lon="2.97139">
        <ele>864</ele>
        <time>2023-04-28T21:26:24Z</time>
      </trkpt>
      <trkpt lat="45.86127" lon="2.97051">
        <ele>861</ele>
        <time>2023-04-28T21:26:42Z</time>
      </trkpt>
      <trkpt lat="45.86151" lon="2.97028">
        <ele>860</ele>
        <time>2023-04-28T21:26:49Z</time>
      </trkpt>
      <trkpt lat="45.86195" lon="2.96993">
        <ele>858</ele>
        <time>2023-04-28T21:27:01Z</time>
      </trkpt>
      <trkpt lat="45.86214" lon="2.96966">
        <ele>858</ele>
        <time>2023-04-28T21:27:07Z</time>
      </trkpt>
      <trkpt lat="45.86242" lon="2.96937">
        <ele>857</ele>
        <time>2023-04-28T21:27:15Z</time>
      </trkpt>
      <trkpt lat="45.86277" lon="2.96885">
        <ele>856</ele>
        <time>2023-04-28T21:27:27Z</time>
      </trkpt>
      <trkpt lat="45.86312" lon="2.96845">
        <ele>854</ele>
        <time>2023-04-28T21:27:37Z</time>
      </trkpt>
      <trkpt lat="45.8637" lon="2.96805">
        <ele>852</ele>
        <time>2023-04-28T21:27:52Z</time>
      </trkpt>
      <trkpt lat="45.86421" lon="2.96829">
        <ele>848</ele>
        <time>2023-04-28T21:28:05Z</time>
      </trkpt>
      <trkpt lat="45.86496" lon="2.96878">
        <ele>850</ele>
        <time>2023-04-28T21:28:24Z</time>
      </trkpt>
      <trkpt lat="45.86515" lon="2.9683">
        <ele>849</ele>
        <time>2023-04-28T21:28:33Z</time>
      </trkpt>
      <trkpt lat="45.86542" lon="2.96793">
        <ele>850</ele>
        <time>2023-04-28T21:28:42Z</time>
      </trkpt>
      <trkpt lat="45.86559" lon="2.96759">
        <ele>851</ele>
        <time>2023-04-28T21:28:49Z</time>
      </trkpt>
      <trkpt lat="45.86605" lon="2.96706">
        <ele>851</ele>
        <time>2023-04-28T21:29:03Z</time>
      </trkpt>
      <trkpt lat="45.8655" lon="2.96705">
        <ele>851</ele>
        <time>2023-04-28T21:29:15Z</time>
      </trkpt>
      <trkpt lat="45.86524" lon="2.9668">
        <ele>852</ele>
        <time>2023-04-28T21:29:23Z</time>
      </trkpt>
      <trkpt lat="45.86493" lon="2.96661">
        <ele>855</ele>
        <time>2023-04-28T21:29:31Z</time>
      </trkpt>
      <trkpt lat="45.86458" lon="2.96631">
        <ele>858</ele>
        <time>2023-04-28T21:29:40Z</time>
      </trkpt>
      <trkpt lat="45.86422" lon="2.96575">
        <ele>863</ele>
        <time>2023-04-28T21:29:52Z</time>
      </trkpt>
      <trkpt lat="45.86413" lon="2.96532">
        <ele>866</ele>
        <time>2023-04-28T21:30:00Z</time>
      </trkpt>
      <trkpt lat="45.86361" lon="2.9652">
        <ele>868</ele>
        <time>2023-04-28T21:30:12Z</time>
      </trkpt>
      <trkpt lat="45.86309" lon="2.96466">
        <ele>874</ele>
        <time>2023-04-28T21:30:27Z</time>
      </trkpt>
      <trkpt lat="45.86258" lon="2.96379">
        <ele>886</ele>
        <time>2023-04-28T21:30:46Z</time>
      </trkpt>
      <trkpt lat="45.86206" lon="2.96339">
        <ele>893</ele>
        <time>2023-04-28T21:30:59Z</time>
      </trkpt>
      <trkpt lat="45.86136" lon="2.96243">
        <ele>901</ele>
        <time>2023-04-28T21:31:22Z</time>
      </trkpt>
      <trkpt lat="45.86085" lon="2.96159">
        <ele>901</ele>
        <time>2023-04-28T21:31:40Z</time>
      </trkpt>
      <trkpt lat="45.86127" lon="2.96095">
        <ele>903</ele>
        <time>2023-04-28T21:31:54Z</time>
      </trkpt>
      <trkpt lat="45.86187" lon="2.96012">
        <ele>905</ele>
        <time>2023-04-28T21:32:14Z</time>
      </trkpt>
      <trkpt lat="45.86242" lon="2.95967">
        <ele>904</ele>
        <time>2023-04-28T21:32:29Z</time>
      </trkpt>
      <trkpt lat="45.86302" lon="2.95901">
        <ele>903</ele>
        <time>2023-04-28T21:32:46Z</time>
      </trkpt>
      <trkpt lat="45.86345" lon="2.95865">
        <ele>900</ele>
        <time>2023-04-28T21:32:58Z</time>
      </trkpt>
      <trkpt lat="45.86318" lon="2.95789">
        <ele>899</ele>
        <time>2023-04-28T21:33:12Z</time>
      </trkpt>
      <trkpt lat="45.8628" lon="2.95698">
        <ele>899</ele>
        <time>2023-04-28T21:33:29Z</time>
      </trkpt>
      <trkpt lat="45.86233" lon="2.95619">
        <ele>903</ele>
        <time>2023-04-28T21:33:46Z</time>
      </trkpt>
      <trkpt lat="45.86203" lon="2.95522">
        <ele>912</ele>
        <time>2023-04-28T21:34:03Z</time>
      </trkpt>
      <trkpt lat="45.86166" lon="2.95447">
        <ele>920</ele>
        <time>2023-04-28T21:34:18Z</time>
      </trkpt>
      <trkpt lat="45.86116" lon="2.95369">
        <ele>927</ele>
        <time>2023-04-28T21:34:35Z</time>
      </trkpt>
      <trkpt lat="45.86093" lon="2.95311">
        <ele>927</ele>
        <time>2023-04-28T21:34:46Z</time>
      </trkpt>
      <trkpt lat="45.86071" lon="2.95235">
        <ele>930</ele>
        <time>2023-04-28T21:35:00Z</time>
      </trkpt>
      <trkpt lat="45.86032" lon="2.95189">
        <ele>933</ele>
        <time>2023-04-28T21:35:11Z</time>
      </trkpt>
      <trkpt lat="45.85982" lon="2.95172">
        <ele>932</ele>
        <time>2023-04-28T21:35:23Z</time>
      </trkpt>
      <trkpt lat="45.85951" lon="2.95069">
        <ele>935</ele>
        <time>2023-04-28T21:35:42Z</time>
      </trkpt>
      <trkpt lat="45.85929" lon="2.95016">
        <ele>935</ele>
        <time>2023-04-28T21:35:52Z</time>
      </trkpt>
      <trkpt lat="45.85947" lon="2.94926">
        <ele>934</ele>
        <time>2023-04-28T21:36:07Z</time>
      </trkpt>
      <trkpt lat="45.85913" lon="2.94868">
        <ele>930</ele>
        <time>2023-04-28T21:36:19Z</time>
      </trkpt>
      <trkpt lat="45.85935" lon="2.94819">
        <ele>928</ele>
        <time>2023-04-28T21:36:29Z</time>
      </trkpt>
      <trkpt lat="45.85989" lon="2.94728">
        <ele>917</ele>
        <time>2023-04-28T21:36:48Z</time>
      </trkpt>
      <trkpt lat="45.86016" lon="2.94675">
        <ele>913</ele>
        <time>2023-04-28T21:36:59Z</time>
      </trkpt>
      <trkpt lat="45.86058" lon="2.94582">
        <ele>905</ele>
        <time>2023-04-28T21:37:17Z</time>
      </trkpt>
      <trkpt lat="45.86071" lon="2.94536">
        <ele>899</ele>
        <time>2023-04-28T21:37:25Z</time>
      </trkpt>
      <trkpt lat="45.86087" lon="2.94494">
        <ele>894</ele>
        <time>2023-04-28T21:37:33Z</time>
      </trkpt>
      <trkpt lat="45.86114" lon="2.94436">
        <ele>890</ele>
        <time>2023-04-28T21:37:44Z</time>
      </trkpt>
      <trkpt lat="45.86125" lon="2.9437">
        <ele>886</ele>
        <time>2023-04-28T21:37:55Z</time>
      </trkpt>
      <trkpt lat="45.86115" lon="2.94292">
        <ele>883</ele>
        <time>2023-04-28T21:38:08Z</time>
      </trkpt>
      <trkpt lat="45.8614" lon="2.94174">
        <ele>874</ele>
        <time>2023-04-28T21:38:28Z</time>
      </trkpt>
      <trkpt lat="45.86212" lon="2.94242">
        <ele>875</ele>
        <time>2023-04-28T21:38:48Z</time>
      </trkpt>
      <trkpt lat="45.86248" lon="2.94261">
        <ele>875</ele>
        <time>2023-04-28T21:38:57Z</time>
      </trkpt>
      <trkpt lat="45.86275" lon="2.94206">
        <ele>873</ele>
        <time>2023-04-28T21:39:08Z</time>
      </trkpt>
      <trkpt lat="45.86279" lon="2.94058">
        <ele>869</ele>
        <time>2023-04-28T21:39:32Z</time>
      </trkpt>
      <trkpt lat="45.86282" lon="2.94006">
        <ele>868</ele>
        <time>2023-04-28T21:39:41Z</time>
      </trkpt>
      <trkpt lat="45.86288" lon="2.93969">
        <ele>866</ele>
        <time>2023-04-28T21:39:47Z</time>
      </trkpt>
      <trkpt lat="45.86344" lon="2.9403">
        <ele>869</ele>
        <time>2023-04-28T21:40:03Z</time>
      </trkpt>
      <trkpt lat="45.86469" lon="2.94178">
        <ele>872</ele>
        <time>2023-04-28T21:40:41Z</time>
      </trkpt>
      <trkpt lat="45.86554" lon="2.94301">
        <ele>866</ele>
        <time>2023-04-28T21:41:09Z</time>
      </trkpt>
      <trkpt lat="45.86602" lon="2.94377">
        <ele>868</ele>
        <time>2023-04-28T21:41:26Z</time>
      </trkpt>
      <trkpt lat="45.86658" lon="2.94444">
        <ele>872</ele>
        <time>2023-04-28T21:41:43Z</time>
      </trkpt>
      <trkpt lat="45.86728" lon="2.94494">
        <ele>871</ele>
        <time>2023-04-28T21:42:01Z</time>
      </trkpt>
      <trkpt lat="45.868" lon="2.94556">
        <ele>876</ele>
        <time>2023-04-28T21:42:21Z</time>
      </trkpt>
      <trkpt lat="45.86798" lon="2.94574">
        <ele>877</ele>
        <time>2023-04-28T21:42:24Z</time>
      </trkpt>
      <trkpt lat="45.86798" lon="2.94643">
        <ele>881</ele>
        <time>2023-04-28T21:42:35Z</time>
      </trkpt>
      <trkpt lat="45.86825" lon="2.94858">
        <ele>888</ele>
        <time>2023-04-28T21:43:11Z</time>
      </trkpt>
      <trkpt lat="45.86803" lon="2.94916">
        <ele>891</ele>
        <time>2023-04-28T21:43:21Z</time>
      </trkpt>
      <trkpt lat="45.86784" lon="2.9502">
        <ele>899</ele>
        <time>2023-04-28T21:43:39Z</time>
      </trkpt>
      <trkpt lat="45.86768" lon="2.95166">
        <ele>906</ele>
        <time>2023-04-28T21:44:03Z</time>
      </trkpt>
      <trkpt lat="45.86771" lon="2.95237">
        <ele>906</ele>
        <time>2023-04-28T21:44:14Z</time>
      </trkpt>
      <trkpt lat="45.86776" lon="2.95275">
        <ele>907</ele>
        <time>2023-04-28T21:44:21Z</time>
      </trkpt>
      <trkpt lat="45.86785" lon="2.95394">
        <ele>913</ele>
        <time>2023-04-28T21:44:40Z</time>
      </trkpt>
      <trkpt lat="45.86806" lon="2.95301">
        <ele>905</ele>
        <time>2023-04-28T21:44:56Z</time>
      </trkpt>
      <trkpt lat="45.86872" lon="2.95189">
        <ele>900</ele>
        <time>2023-04-28T21:45:20Z</time>
      </trkpt>
      <trkpt lat="45.86949" lon="2.95147">
        <ele>901</ele>
        <time>2023-04-28T21:45:39Z</time>
      </trkpt>
      <trkpt lat="45.87004" lon="2.95112">
        <ele>900</ele>
        <time>2023-04-28T21:45:53Z</time>
      </trkpt>
      <trkpt lat="45.87065" lon="2.95112">
        <ele>899</ele>
        <time>2023-04-28T21:46:07Z</time>
      </trkpt>
      <trkpt lat="45.87154" lon="2.95063">
        <ele>891</ele>
        <time>2023-04-28T21:46:30Z</time>
      </trkpt>
      <trkpt lat="45.87232" lon="2.94975">
        <ele>884</ele>
        <time>2023-04-28T21:46:53Z</time>
      </trkpt>
      <trkpt lat="45.87287" lon="2.94889">
        <ele>881</ele>
        <time>2023-04-28T21:47:12Z</time>
      </trkpt>
      <trkpt lat="45.87314" lon="2.94795">
        <ele>879</ele>
        <time>2023-04-28T21:47:28Z</time>
      </trkpt>
      <trkpt lat="45.87337" lon="2.94655">
        <ele>878</ele>
        <time>2023-04-28T21:47:52Z</time>
      </trkpt>
      <trkpt lat="45.87517" lon="2.94356">
        <ele>853</ele>
        <time>2023-04-28T21:48:56Z</time>
      </trkpt>
      <trkpt lat="45.87539" lon="2.94415">
        <ele>854</ele>
        <time>2023-04-28T21:49:07Z</time>
      </trkpt>
      <trkpt lat="45.87576" lon="2.9445">
        <ele>853</ele>
        <time>2023-04-28T21:49:17Z</time>
      </trkpt>
      <trkpt lat="45.87588" lon="2.94547">
        <ele>853</ele>
        <time>2023-04-28T21:49:33Z</time>
      </trkpt>
      <trkpt lat="45.8759" lon="2.94626">
        <ele>854</ele>
        <time>2023-04-28T21:49:46Z</time>
      </trkpt>
      <trkpt lat="45.87654" lon="2.94711">
        <ele>851</ele>
        <time>2023-04-28T21:50:06Z</time>
      </trkpt>
      <trkpt lat="45.8769" lon="2.9474">
        <ele>849</ele>
        <time>2023-04-28T21:50:16Z</time>
      </trkpt>
      <trkpt lat="45.87717" lon="2.94725">
        <ele>843</ele>
        <time>2023-04-28T21:50:23Z</time>
      </trkpt>
      <trkpt lat="45.8774" lon="2.94684">
        <ele>838</ele>
        <time>2023-04-28T21:50:31Z</time>
      </trkpt>
      <trkpt lat="45.87786" lon="2.94657">
        <ele>836</ele>
        <time>2023-04-28T21:50:43Z</time>
      </trkpt>
      <trkpt lat="45.87936" lon="2.94583">
        <ele>833</ele>
        <time>2023-04-28T21:51:20Z</time>
      </trkpt>
      <trkpt lat="45.8795" lon="2.94559">
        <ele>833</ele>
        <time>2023-04-28T21:51:25Z</time>
      </trkpt>
      <trkpt lat="45.88025" lon="2.94489">
        <ele>829</ele>
        <time>2023-04-28T21:51:46Z</time>
      </trkpt>
      <trkpt lat="45.88048" lon="2.94471">
        <ele>827</ele>
        <time>2023-04-28T21:51:52Z</time>
      </trkpt>
      <trkpt lat="45.88124" lon="2.94484">
        <ele>824</ele>
        <time>2023-04-28T21:52:10Z</time>
      </trkpt>
      <trkpt lat="45.88177" lon="2.94503">
        <ele>823</ele>
        <time>2023-04-28T21:52:23Z</time>
      </trkpt>
      <trkpt lat="45.88285" lon="2.94503">
        <ele>823</ele>
        <time>2023-04-28T21:52:48Z</time>
      </trkpt>
      <trkpt lat="45.88315" lon="2.9453">
        <ele>823</ele>
        <time>2023-04-28T21:52:56Z</time>
      </trkpt>
      <trkpt lat="45.88353" lon="2.94681">
        <ele>821</ele>
        <time>2023-04-28T21:53:22Z</time>
      </trkpt>
      <trkpt lat="45.88354" lon="2.94712">
        <ele>821</ele>
        <time>2023-04-28T21:53:27Z</time>
      </trkpt>
      <trkpt lat="45.88432" lon="2.94709">
        <ele>819</ele>
        <time>2023-04-28T21:53:46Z</time>
      </trkpt>
      <trkpt lat="45.88505" lon="2.94702">
        <ele>819</ele>
        <time>2023-04-28T21:54:03Z</time>
      </trkpt>
      <trkpt lat="45.88837" lon="2.94679">
        <ele>817</ele>
        <time>2023-04-28T21:55:20Z</time>
      </trkpt>
      <trkpt lat="45.88993" lon="2.94662">
        <ele>822</ele>
        <time>2023-04-28T21:55:57Z</time>
      </trkpt>
      <trkpt lat="45.89092" lon="2.94659">
        <ele>824</ele>
        <time>2023-04-28T21:56:20Z</time>
      </trkpt>
      <trkpt lat="45.8911" lon="2.94677">
        <ele>824</ele>
        <time>2023-04-28T21:56:25Z</time>
      </trkpt>
      <trkpt lat="45.89139" lon="2.94672">
        <ele>824</ele>
        <time>2023-04-28T21:56:32Z</time>
      </trkpt>
      <trkpt lat="45.89155" lon="2.94672">
        <ele>824</ele>
        <time>2023-04-28T21:56:36Z</time>
      </trkpt>
      <trkpt lat="45.89174" lon="2.9468">
        <ele>824</ele>
        <time>2023-04-28T21:56:40Z</time>
      </trkpt>
      <trkpt lat="45.89192" lon="2.94691">
        <ele>825</ele>
        <time>2023-04-28T21:56:45Z</time>
      </trkpt>
      <trkpt lat="45.89209" lon="2.94706">
        <ele>825</ele>
        <time>2023-04-28T21:56:50Z</time>
      </trkpt>
      <trkpt lat="45.89236" lon="2.94753">
        <ele>825</ele>
        <time>2023-04-28T21:56:59Z</time>
      </trkpt>
      <trkpt lat="45.89243" lon="2.94761">
        <ele>825</ele>
        <time>2023-04-28T21:57:02Z</time>
      </trkpt>
      <trkpt lat="45.89252" lon="2.94764">
        <ele>826</ele>
        <time>2023-04-28T21:57:04Z</time>
      </trkpt>
      <trkpt lat="45.89257" lon="2.94771">
        <ele>826</ele>
        <time>2023-04-28T21:57:05Z</time>
      </trkpt>
      <trkpt lat="45.89263" lon="2.94791">
        <ele>827</ele>
        <time>2023-04-28T21:57:09Z</time>
      </trkpt>
      <trkpt lat="45.89264" lon="2.9481">
        <ele>827</ele>
        <time>2023-04-28T21:57:12Z</time>
      </trkpt>
      <trkpt lat="45.89261" lon="2.94838">
        <ele>828</ele>
        <time>2023-04-28T21:57:17Z</time>
      </trkpt>
      <trkpt lat="45.89247" lon="2.94909">
        <ele>829</ele>
        <time>2023-04-28T21:57:29Z</time>
      </trkpt>
      <trkpt lat="45.8918" lon="2.95047">
        <ele>844</ele>
        <time>2023-04-28T21:57:56Z</time>
      </trkpt>
      <trkpt lat="45.89113" lon="2.95109">
        <ele>856</ele>
        <time>2023-04-28T21:58:14Z</time>
      </trkpt>
      <trkpt lat="45.89067" lon="2.9519">
        <ele>863</ele>
        <time>2023-04-28T21:58:31Z</time>
      </trkpt>
      <trkpt lat="45.88992" lon="2.95528">
        <ele>873</ele>
        <time>2023-04-28T21:59:29Z</time>
      </trkpt>
      <trkpt lat="45.88961" lon="2.95696">
        <ele>872</ele>
        <time>2023-04-28T21:59:57Z</time>
      </trkpt>
      <trkpt lat="45.88977" lon="2.9587">
        <ele>864</ele>
        <time>2023-04-28T22:00:26Z</time>
      </trkpt>
      <trkpt lat="45.89002" lon="2.96022">
        <ele>855</ele>
        <time>2023-04-28T22:00:51Z</time>
      </trkpt>
      <trkpt lat="45.89027" lon="2.96155">
        <ele>850</ele>
        <time>2023-04-28T22:01:14Z</time>
      </trkpt>
      <trkpt lat="45.8903" lon="2.96265">
        <ele>848</ele>
        <time>2023-04-28T22:01:32Z</time>
      </trkpt>
      <trkpt lat="45.88998" lon="2.96387">
        <ele>834</ele>
        <time>2023-04-28T22:01:53Z</time>
      </trkpt>
      <trkpt lat="45.89118" lon="2.96637">
        <ele>808</ele>
        <time>2023-04-28T22:02:42Z</time>
      </trkpt>
      <trkpt lat="45.89203" lon="2.9666">
        <ele>805</ele>
        <time>2023-04-28T22:03:02Z</time>
      </trkpt>
      <trkpt lat="45.89299" lon="2.96722">
        <ele>804</ele>
        <time>2023-04-28T22:03:27Z</time>
      </trkpt>
      <trkpt lat="45.89334" lon="2.96451">
        <ele>819</ele>
        <time>2023-04-28T22:04:12Z</time>
      </trkpt>
      <trkpt lat="45.89424" lon="2.96107">
        <ele>828</ele>
        <time>2023-04-28T22:05:11Z</time>
      </trkpt>
      <trkpt lat="45.89505" lon="2.95645">
        <ele>838</ele>
        <time>2023-04-28T22:06:29Z</time>
      </trkpt>
      <trkpt lat="45.89568" lon="2.95446">
        <ele>841</ele>
        <time>2023-04-28T22:07:04Z</time>
      </trkpt>
      <trkpt lat="45.89607" lon="2.95441">
        <ele>831</ele>
        <time>2023-04-28T22:07:14Z</time>
      </trkpt>
      <trkpt lat="45.89645" lon="2.95491">
        <ele>821</ele>
        <time>2023-04-28T22:07:26Z</time>
      </trkpt>
      <trkpt lat="45.89667" lon="2.95526">
        <ele>819</ele>
        <time>2023-04-28T22:07:33Z</time>
      </trkpt>
      <trkpt lat="45.89685" lon="2.95549">
        <ele>819</ele>
        <time>2023-04-28T22:07:39Z</time>
      </trkpt>
      <trkpt lat="45.89794" lon="2.95483">
        <ele>811</ele>
        <time>2023-04-28T22:08:07Z</time>
      </trkpt>
      <trkpt lat="45.89872" lon="2.95342">
        <ele>810</ele>
        <time>2023-04-28T22:08:36Z</time>
      </trkpt>
      <trkpt lat="45.89902" lon="2.95303">
        <ele>809</ele>
        <time>2023-04-28T22:08:45Z</time>
      </trkpt>
      <trkpt lat="45.89959" lon="2.95283">
        <ele>808</ele>
        <time>2023-04-28T22:08:59Z</time>
      </trkpt>
      <trkpt lat="45.89973" lon="2.95332">
        <ele>807</ele>
        <time>2023-04-28T22:09:08Z</time>
      </trkpt>
      <trkpt lat="45.89998" lon="2.95393">
        <ele>806</ele>
        <time>2023-04-28T22:09:19Z</time>
      </trkpt>
      <trkpt lat="45.90082" lon="2.95489">
        <ele>802</ele>
        <time>2023-04-28T22:09:44Z</time>
      </trkpt>
      <trkpt lat="45.90171" lon="2.95627">
        <ele>802</ele>
        <time>2023-04-28T22:10:15Z</time>
      </trkpt>
      <trkpt lat="45.90249" lon="2.95714">
        <ele>801</ele>
        <time>2023-04-28T22:10:38Z</time>
      </trkpt>
      <trkpt lat="45.90277" lon="2.95562">
        <ele>806</ele>
        <time>2023-04-28T22:11:03Z</time>
      </trkpt>
      <trkpt lat="45.90318" lon="2.95394">
        <ele>815</ele>
        <time>2023-04-28T22:11:32Z</time>
      </trkpt>
      <trkpt lat="45.90343" lon="2.95346">
        <ele>818</ele>
        <time>2023-04-28T22:11:42Z</time>
      </trkpt>
      <trkpt lat="45.90356" lon="2.95276">
        <ele>822</ele>
        <time>2023-04-28T22:11:54Z</time>
      </trkpt>
      <trkpt lat="45.9035" lon="2.95188">
        <ele>826</ele>
        <time>2023-04-28T22:12:08Z</time>
      </trkpt>
      <trkpt lat="45.90363" lon="2.95098">
        <ele>825</ele>
        <time>2023-04-28T22:12:23Z</time>
      </trkpt>
      <trkpt lat="45.90365" lon="2.95004">
        <ele>830</ele>
        <time>2023-04-28T22:12:38Z</time>
      </trkpt>
      <trkpt lat="45.90487" lon="2.95028">
        <ele>826</ele>
        <time>2023-04-28T22:13:07Z</time>
      </trkpt>
      <trkpt lat="45.90477" lon="2.9512">
        <ele>820</ele>
        <time>2023-04-28T22:13:22Z</time>
      </trkpt>
      <trkpt lat="45.90483" lon="2.95191">
        <ele>814</ele>
        <time>2023-04-28T22:13:34Z</time>
      </trkpt>
      <trkpt lat="45.90511" lon="2.95296">
        <ele>806</ele>
        <time>2023-04-28T22:13:52Z</time>
      </trkpt>
      <trkpt lat="45.90553" lon="2.95423">
        <ele>801</ele>
        <time>2023-04-28T22:14:15Z</time>
      </trkpt>
      <trkpt lat="45.906" lon="2.95492">
        <ele>798</ele>
        <time>2023-04-28T22:14:31Z</time>
      </trkpt>
      <trkpt lat="45.90654" lon="2.95553">
        <ele>795</ele>
        <time>2023-04-28T22:14:47Z</time>
      </trkpt>
      <trkpt lat="45.90713" lon="2.95645">
        <ele>793</ele>
        <time>2023-04-28T22:15:07Z</time>
      </trkpt>
      <trkpt lat="45.9078" lon="2.95766">
        <ele>793</ele>
        <time>2023-04-28T22:15:32Z</time>
      </trkpt>
      <trkpt lat="45.90819" lon="2.9586">
        <ele>796</ele>
        <time>2023-04-28T22:15:50Z</time>
      </trkpt>
      <trkpt lat="45.90838" lon="2.95942">
        <ele>798</ele>
        <time>2023-04-28T22:16:04Z</time>
      </trkpt>
      <trkpt lat="45.9085" lon="2.96041">
        <ele>798</ele>
        <time>2023-04-28T22:16:20Z</time>
      </trkpt>
      <trkpt lat="45.90911" lon="2.95992">
        <ele>804</ele>
        <time>2023-04-28T22:16:37Z</time>
      </trkpt>
      <trkpt lat="45.90962" lon="2.9594">
        <ele>813</ele>
        <time>2023-04-28T22:16:51Z</time>
      </trkpt>
      <trkpt lat="45.90975" lon="2.9589">
        <ele>816</ele>
        <time>2023-04-28T22:17:00Z</time>
      </trkpt>
      <trkpt lat="45.90999" lon="2.95833">
        <ele>821</ele>
        <time>2023-04-28T22:17:11Z</time>
      </trkpt>
      <trkpt lat="45.91026" lon="2.95784">
        <ele>823</ele>
        <time>2023-04-28T22:17:21Z</time>
      </trkpt>
      <trkpt lat="45.91058" lon="2.95759">
        <ele>825</ele>
        <time>2023-04-28T22:17:29Z</time>
      </trkpt>
      <trkpt lat="45.91129" lon="2.95814">
        <ele>833</ele>
        <time>2023-04-28T22:17:48Z</time>
      </trkpt>
      <trkpt lat="45.9118" lon="2.95822">
        <ele>835</ele>
        <time>2023-04-28T22:18:00Z</time>
      </trkpt>
      <trkpt lat="45.91218" lon="2.95831">
        <ele>837</ele>
        <time>2023-04-28T22:18:09Z</time>
      </trkpt>
      <trkpt lat="45.91304" lon="2.95895">
        <ele>837</ele>
        <time>2023-04-28T22:18:32Z</time>
      </trkpt>
      <trkpt lat="45.91385" lon="2.95942">
        <ele>837</ele>
        <time>2023-04-28T22:18:52Z</time>
      </trkpt>
      <trkpt lat="45.91559" lon="2.96059">
        <ele>839</ele>
        <time>2023-04-28T22:19:37Z</time>
      </trkpt>
      <trkpt lat="45.91548" lon="2.96178">
        <ele>831</ele>
        <time>2023-04-28T22:19:57Z</time>
      </trkpt>
      <trkpt lat="45.91465" lon="2.96286">
        <ele>818</ele>
        <time>2023-04-28T22:20:23Z</time>
      </trkpt>
      <trkpt lat="45.91435" lon="2.96316">
        <ele>816</ele>
        <time>2023-04-28T22:20:31Z</time>
      </trkpt>
      <trkpt lat="45.91441" lon="2.96344">
        <ele>815</ele>
        <time>2023-04-28T22:20:36Z</time>
      </trkpt>
      <trkpt lat="45.91524" lon="2.96319">
        <ele>817</ele>
        <time>2023-04-28T22:20:56Z</time>
      </trkpt>
      <trkpt lat="45.91565" lon="2.96322">
        <ele>819</ele>
        <time>2023-04-28T22:21:05Z</time>
      </trkpt>
      <trkpt lat="45.91655" lon="2.96298">
        <ele>826</ele>
        <time>2023-04-28T22:21:27Z</time>
      </trkpt>
      <trkpt lat="45.91714" lon="2.9626">
        <ele>834</ele>
        <time>2023-04-28T22:21:42Z</time>
      </trkpt>
      <trkpt lat="45.91797" lon="2.96231">
        <ele>842</ele>
        <time>2023-04-28T22:22:02Z</time>
      </trkpt>
      <trkpt lat="45.91845" lon="2.96165">
        <ele>848</ele>
        <time>2023-04-28T22:22:17Z</time>
      </trkpt>
      <trkpt lat="45.91909" lon="2.96119">
        <ele>849</ele>
        <time>2023-04-28T22:22:34Z</time>
      </trkpt>
      <trkpt lat="45.91962" lon="2.96035">
        <ele>848</ele>
        <time>2023-04-28T22:22:53Z</time>
      </trkpt>
      <trkpt lat="45.92281" lon="2.96078">
        <ele>855</ele>
        <time>2023-04-28T22:24:07Z</time>
      </trkpt>
      <trkpt lat="45.92314" lon="2.96105">
        <ele>854</ele>
        <time>2023-04-28T22:24:16Z</time>
      </trkpt>
      <trkpt lat="45.9238" lon="2.96142">
        <ele>852</ele>
        <time>2023-04-28T22:24:33Z</time>
      </trkpt>
      <trkpt lat="45.92423" lon="2.9618">
        <ele>852</ele>
        <time>2023-04-28T22:24:45Z</time>
      </trkpt>
      <trkpt lat="45.92514" lon="2.9625">
        <ele>855</ele>
        <time>2023-04-28T22:25:09Z</time>
      </trkpt>
      <trkpt lat="45.92601" lon="2.96296">
        <ele>854</ele>
        <time>2023-04-28T22:25:30Z</time>
      </trkpt>
      <trkpt lat="45.92726" lon="2.96413">
        <ele>849</ele>
        <time>2023-04-28T22:26:05Z</time>
      </trkpt>
      <trkpt lat="45.92743" lon="2.96511">
        <ele>848</ele>
        <time>2023-04-28T22:26:22Z</time>
      </trkpt>
      <trkpt lat="45.9277" lon="2.96618">
        <ele>845</ele>
        <time>2023-04-28T22:26:40Z</time>
      </trkpt>
      <trkpt lat="45.92833" lon="2.96702">
        <ele>842</ele>
        <time>2023-04-28T22:27:00Z</time>
      </trkpt>
      <trkpt lat="45.92888" lon="2.96767">
        <ele>835</ele>
        <time>2023-04-28T22:27:17Z</time>
      </trkpt>
      <trkpt lat="45.92983" lon="2.96896">
        <ele>833</ele>
        <time>2023-04-28T22:27:47Z</time>
      </trkpt>
      <trkpt lat="45.93087" lon="2.96961">
        <ele>834</ele>
        <time>2023-04-28T22:28:14Z</time>
      </trkpt>
      <trkpt lat="45.93168" lon="2.97036">
        <ele>832</ele>
        <time>2023-04-28T22:28:36Z</time>
      </trkpt>
      <trkpt lat="45.93242" lon="2.97153">
        <ele>822</ele>
        <time>2023-04-28T22:29:02Z</time>
      </trkpt>
      <trkpt lat="45.93434" lon="2.97198">
        <ele>817</ele>
        <time>2023-04-28T22:29:47Z</time>
      </trkpt>
      <trkpt lat="45.93558" lon="2.97171">
        <ele>809</ele>
        <time>2023-04-28T22:30:17Z</time>
      </trkpt>
      <trkpt lat="45.93646" lon="2.97204">
        <ele>800</ele>
        <time>2023-04-28T22:30:38Z</time>
      </trkpt>
      <trkpt lat="45.93724" lon="2.97196">
        <ele>794</ele>
        <time>2023-04-28T22:30:56Z</time>
      </trkpt>
      <trkpt lat="45.9377" lon="2.97219">
        <ele>791</ele>
        <time>2023-04-28T22:31:07Z</time>
      </trkpt>
      <trkpt lat="45.9378" lon="2.97351">
        <ele>786</ele>
        <time>2023-04-28T22:31:29Z</time>
      </trkpt>
      <trkpt lat="45.93814" lon="2.97489">
        <ele>773</ele>
        <time>2023-04-28T22:31:53Z</time>
      </trkpt>
      <trkpt lat="45.93913" lon="2.97655">
        <ele>758</ele>
        <time>2023-04-28T22:32:28Z</time>
      </trkpt>
      <trkpt lat="45.9393" lon="2.97739">
        <ele>750</ele>
        <time>2023-04-28T22:32:43Z</time>
      </trkpt>
      <trkpt lat="45.93896" lon="2.97774">
        <ele>743</ele>
        <time>2023-04-28T22:32:52Z</time>
      </trkpt>
      <trkpt lat="45.93931" lon="2.97896">
        <ele>731</ele>
        <time>2023-04-28T22:33:14Z</time>
      </trkpt>
      <trkpt lat="45.9384" lon="2.97844">
        <ele>732</ele>
        <time>2023-04-28T22:33:37Z</time>
      </trkpt>
      <trkpt lat="45.93744" lon="2.98221">
        <ele>722</ele>
        <time>2023-04-28T22:34:42Z</time>
      </trkpt>
      <trkpt lat="45.93724" lon="2.98363">
        <ele>715</ele>
        <time>2023-04-28T22:35:05Z</time>
      </trkpt>
      <trkpt lat="45.93758" lon="2.98551">
        <ele>712</ele>
        <time>2023-04-28T22:35:37Z</time>
      </trkpt>
      <trkpt lat="45.937" lon="2.9886">
        <ele>712</ele>
        <time>2023-04-28T22:36:29Z</time>
      </trkpt>
      <trkpt lat="45.93699" lon="2.98963">
        <ele>715</ele>
        <time>2023-04-28T22:36:46Z</time>
      </trkpt>
      <trkpt lat="45.9369" lon="2.99022">
        <ele>717</ele>
        <time>2023-04-28T22:36:55Z</time>
      </trkpt>
      <trkpt lat="45.93668" lon="2.99062">
        <ele>718</ele>
        <time>2023-04-28T22:37:04Z</time>
      </trkpt>
      <trkpt lat="45.93614" lon="2.99003">
        <ele>714</ele>
        <time>2023-04-28T22:37:20Z</time>
      </trkpt>
      <trkpt lat="45.93548" lon="2.99007">
        <ele>713</ele>
        <time>2023-04-28T22:37:35Z</time>
      </trkpt>
      <trkpt lat="45.93482" lon="2.98939">
        <ele>709</ele>
        <time>2023-04-28T22:37:54Z</time>
      </trkpt>
      <trkpt lat="45.93425" lon="2.98916">
        <ele>709</ele>
        <time>2023-04-28T22:38:08Z</time>
      </trkpt>
      <trkpt lat="45.93302" lon="2.98848">
        <ele>707</ele>
        <time>2023-04-28T22:38:39Z</time>
      </trkpt>
      <trkpt lat="45.93228" lon="2.98845">
        <ele>709</ele>
        <time>2023-04-28T22:38:56Z</time>
      </trkpt>
      <trkpt lat="45.93174" lon="2.98838">
        <ele>711</ele>
        <time>2023-04-28T22:39:08Z</time>
      </trkpt>
      <trkpt lat="45.93087" lon="2.98806">
        <ele>710</ele>
        <time>2023-04-28T22:39:29Z</time>
      </trkpt>
      <trkpt lat="45.92984" lon="2.98801">
        <ele>710</ele>
        <time>2023-04-28T22:39:53Z</time>
      </trkpt>
      <trkpt lat="45.92842" lon="2.98882">
        <ele>714</ele>
        <time>2023-04-28T22:40:29Z</time>
      </trkpt>
      <trkpt lat="45.92704" lon="2.98905">
        <ele>721</ele>
        <time>2023-04-28T22:41:02Z</time>
      </trkpt>
      <trkpt lat="45.92611" lon="2.98888">
        <ele>726</ele>
        <time>2023-04-28T22:41:24Z</time>
      </trkpt>
      <trkpt lat="45.92514" lon="2.98886">
        <ele>730</ele>
        <time>2023-04-28T22:41:46Z</time>
      </trkpt>
      <trkpt lat="45.92447" lon="2.98857">
        <ele>730</ele>
        <time>2023-04-28T22:42:03Z</time>
      </trkpt>
      <trkpt lat="45.92357" lon="2.98809">
        <ele>728</ele>
        <time>2023-04-28T22:42:25Z</time>
      </trkpt>
      <trkpt lat="45.92294" lon="2.98734">
        <ele>727</ele>
        <time>2023-04-28T22:42:44Z</time>
      </trkpt>
      <trkpt lat="45.92252" lon="2.98661">
        <ele>728</ele>
        <time>2023-04-28T22:42:59Z</time>
      </trkpt>
      <trkpt lat="45.9211" lon="2.98514">
        <ele>725</ele>
        <time>2023-04-28T22:43:40Z</time>
      </trkpt>
      <trkpt lat="45.92054" lon="2.98415">
        <ele>723</ele>
        <time>2023-04-28T22:44:01Z</time>
      </trkpt>
      <trkpt lat="45.91999" lon="2.9831">
        <ele>720</ele>
        <time>2023-04-28T22:44:22Z</time>
      </trkpt>
      <trkpt lat="45.91994" lon="2.98238">
        <ele>723</ele>
        <time>2023-04-28T22:44:34Z</time>
      </trkpt>
      <trkpt lat="45.91865" lon="2.98097">
        <ele>725</ele>
        <time>2023-04-28T22:45:12Z</time>
      </trkpt>
      <trkpt lat="45.91815" lon="2.97959">
        <ele>729</ele>
        <time>2023-04-28T22:45:37Z</time>
      </trkpt>
      <trkpt lat="45.91778" lon="2.97838">
        <ele>736</ele>
        <time>2023-04-28T22:45:59Z</time>
      </trkpt>
      <trkpt lat="45.91728" lon="2.9773">
        <ele>748</ele>
        <time>2023-04-28T22:46:20Z</time>
      </trkpt>
      <trkpt lat="45.91684" lon="2.97654">
        <ele>759</ele>
        <time>2023-04-28T22:46:36Z</time>
      </trkpt>
      <trkpt lat="45.91627" lon="2.97534">
        <ele>773</ele>
        <time>2023-04-28T22:46:59Z</time>
      </trkpt>
      <trkpt lat="45.9156" lon="2.97564">
        <ele>774</ele>
        <time>2023-04-28T22:47:16Z</time>
      </trkpt>
      <trkpt lat="45.91476" lon="2.97552">
        <ele>779</ele>
        <time>2023-04-28T22:47:36Z</time>
      </trkpt>
      <trkpt lat="45.91435" lon="2.97576">
        <ele>778</ele>
        <time>2023-04-28T22:47:46Z</time>
      </trkpt>
      <trkpt lat="45.91437" lon="2.97672">
        <ele>770</ele>
        <time>2023-04-28T22:48:02Z</time>
      </trkpt>
      <trkpt lat="45.9141" lon="2.97729">
        <ele>768</ele>
        <time>2023-04-28T22:48:13Z</time>
      </trkpt>
      <trkpt lat="45.91368" lon="2.97747">
        <ele>768</ele>
        <time>2023-04-28T22:48:23Z</time>
      </trkpt>
      <trkpt lat="45.91321" lon="2.97763">
        <ele>767</ele>
        <time>2023-04-28T22:48:34Z</time>
      </trkpt>
      <trkpt lat="45.91249" lon="2.97744">
        <ele>766</ele>
        <time>2023-04-28T22:48:51Z</time>
      </trkpt>
      <trkpt lat="45.91167" lon="2.97697">
        <ele>766</ele>
        <time>2023-04-28T22:49:12Z</time>
      </trkpt>
      <trkpt lat="45.91045" lon="2.97715">
        <ele>770</ele>
        <time>2023-04-28T22:49:41Z</time>
      </trkpt>
      <trkpt lat="45.91052" lon="2.97886">
        <ele>769</ele>
        <time>2023-04-28T22:50:08Z</time>
      </trkpt>
      <trkpt lat="45.91031" lon="2.98194">
        <ele>769</ele>
        <time>2023-04-28T22:50:59Z</time>
      </trkpt>
      <trkpt lat="45.90836" lon="2.98118">
        <ele>774</ele>
        <time>2023-04-28T22:51:46Z</time>
      </trkpt>
      <trkpt lat="45.9079" lon="2.98108">
        <ele>776</ele>
        <time>2023-04-28T22:51:57Z</time>
      </trkpt>
      <trkpt lat="45.90695" lon="2.98128">
        <ele>781</ele>
        <time>2023-04-28T22:52:19Z</time>
      </trkpt>
      <trkpt lat="45.90513" lon="2.98143">
        <ele>786</ele>
        <time>2023-04-28T22:53:02Z</time>
      </trkpt>
      <trkpt lat="45.90409" lon="2.98113">
        <ele>786</ele>
        <time>2023-04-28T22:53:27Z</time>
      </trkpt>
      <trkpt lat="45.90314" lon="2.9801">
        <ele>787</ele>
        <time>2023-04-28T22:53:54Z</time>
      </trkpt>
      <trkpt lat="45.90149" lon="2.97762">
        <ele>789</ele>
        <time>2023-04-28T22:54:50Z</time>
      </trkpt>
      <trkpt lat="45.90135" lon="2.97769">
        <ele>787</ele>
        <time>2023-04-28T22:54:54Z</time>
      </trkpt>
      <trkpt lat="45.901" lon="2.97886">
        <ele>780</ele>
        <time>2023-04-28T22:55:14Z</time>
      </trkpt>
      <trkpt lat="45.90078" lon="2.98032">
        <ele>777</ele>
        <time>2023-04-28T22:55:38Z</time>
      </trkpt>
      <trkpt lat="45.90049" lon="2.98089">
        <ele>781</ele>
        <time>2023-04-28T22:55:50Z</time>
      </trkpt>
      <trkpt lat="45.901" lon="2.98157">
        <ele>782</ele>
        <time>2023-04-28T22:56:06Z</time>
      </trkpt>
      <trkpt lat="45.90204" lon="2.98359">
        <ele>784</ele>
        <time>2023-04-28T22:56:47Z</time>
      </trkpt>
      <trkpt lat="45.90202" lon="2.98471">
        <ele>778</ele>
        <time>2023-04-28T22:57:05Z</time>
      </trkpt>
      <trkpt lat="45.90224" lon="2.98635">
        <ele>767</ele>
        <time>2023-04-28T22:57:32Z</time>
      </trkpt>
      <trkpt lat="45.90265" lon="2.98788">
        <ele>761</ele>
        <time>2023-04-28T22:57:59Z</time>
      </trkpt>
      <trkpt lat="45.90285" lon="2.98926">
        <ele>754</ele>
        <time>2023-04-28T22:58:22Z</time>
      </trkpt>
      <trkpt lat="45.90304" lon="2.98986">
        <ele>751</ele>
        <time>2023-04-28T22:58:33Z</time>
      </trkpt>
      <trkpt lat="45.90316" lon="2.99015">
        <ele>750</ele>
        <time>2023-04-28T22:58:38Z</time>
      </trkpt>
      <trkpt lat="45.9035" lon="2.99081">
        <ele>747</ele>
        <time>2023-04-28T22:58:51Z</time>
      </trkpt>
      <trkpt lat="45.90368" lon="2.9913">
        <ele>744</ele>
        <time>2023-04-28T22:59:00Z</time>
      </trkpt>
      <trkpt lat="45.90391" lon="2.9921">
        <ele>741</ele>
        <time>2023-04-28T22:59:15Z</time>
      </trkpt>
      <trkpt lat="45.90432" lon="2.99328">
        <ele>733</ele>
        <time>2023-04-28T22:59:36Z</time>
      </trkpt>
      <trkpt lat="45.90464" lon="2.99381">
        <ele>729</ele>
        <time>2023-04-28T22:59:47Z</time>
      </trkpt>
      <trkpt lat="45.9048" lon="2.99397">
        <ele>727</ele>
        <time>2023-04-28T22:59:52Z</time>
      </trkpt>
      <trkpt lat="45.90497" lon="2.99419">
        <ele>726</ele>
        <time>2023-04-28T22:59:57Z</time>
      </trkpt>
      <trkpt lat="45.90506" lon="2.99443">
        <ele>726</ele>
        <time>2023-04-28T23:00:02Z</time>
      </trkpt>
      <trkpt lat="45.90542" lon="2.99498">
        <ele>724</ele>
        <time>2023-04-28T23:00:14Z</time>
      </trkpt>
      <trkpt lat="45.90553" lon="2.99529">
        <ele>723</ele>
        <time>2023-04-28T23:00:20Z</time>
      </trkpt>
      <trkpt lat="45.9056" lon="2.99612">
        <ele>721</ele>
        <time>2023-04-28T23:00:33Z</time>
      </trkpt>
      <trkpt lat="45.90557" lon="2.99636">
        <ele>721</ele>
        <time>2023-04-28T23:00:37Z</time>
      </trkpt>
      <trkpt lat="45.90563" lon="2.99661">
        <ele>721</ele>
        <time>2023-04-28T23:00:41Z</time>
      </trkpt>
      <trkpt lat="45.90573" lon="2.99687">
        <ele>721</ele>
        <time>2023-04-28T23:00:46Z</time>
      </trkpt>
      <trkpt lat="45.90559" lon="2.99695">
        <ele>721</ele>
        <time>2023-04-28T23:00:50Z</time>
      </trkpt>
      <trkpt lat="45.90555" lon="2.99704">
        <ele>721</ele>
        <time>2023-04-28T23:00:52Z</time>
      </trkpt>
      <trkpt lat="45.90559" lon="2.99828">
        <ele>719</ele>
        <time>2023-04-28T23:01:12Z</time>
      </trkpt>
      <trkpt lat="45.90584" lon="2.99835">
        <ele>719</ele>
        <time>2023-04-28T23:01:18Z</time>
      </trkpt>
      <trkpt lat="45.90655" lon="2.99825">
        <ele>724</ele>
        <time>2023-04-28T23:01:34Z</time>
      </trkpt>
      <trkpt lat="45.90688" lon="2.99829">
        <ele>725</ele>
        <time>2023-04-28T23:01:42Z</time>
      </trkpt>
      <trkpt lat="45.90714" lon="2.99839">
        <ele>727</ele>
        <time>2023-04-28T23:01:48Z</time>
      </trkpt>
      <trkpt lat="45.9073" lon="2.99853">
        <ele>727</ele>
        <time>2023-04-28T23:01:53Z</time>
      </trkpt>
      <trkpt lat="45.90744" lon="2.99857">
        <ele>728</ele>
        <time>2023-04-28T23:01:56Z</time>
      </trkpt>
      <trkpt lat="45.90731" lon="2.99936">
        <ele>724</ele>
        <time>2023-04-28T23:02:09Z</time>
      </trkpt>
      <trkpt lat="45.90716" lon="2.99972">
        <ele>721</ele>
        <time>2023-04-28T23:02:16Z</time>
      </trkpt>
      <trkpt lat="45.90728" lon="3.00014">
        <ele>720</ele>
        <time>2023-04-28T23:02:23Z</time>
      </trkpt>
      <trkpt lat="45.90751" lon="3.00066">
        <ele>720</ele>
        <time>2023-04-28T23:02:33Z</time>
      </trkpt>
      <trkpt lat="45.90765" lon="3.00141">
        <ele>721</ele>
        <time>2023-04-28T23:02:46Z</time>
      </trkpt>
      <trkpt lat="45.90756" lon="3.0015">
        <ele>720</ele>
        <time>2023-04-28T23:02:49Z</time>
      </trkpt>
      <trkpt lat="45.9075" lon="3.00163">
        <ele>720</ele>
        <time>2023-04-28T23:02:51Z</time>
      </trkpt>
      <trkpt lat="45.90741" lon="3.0021">
        <ele>718</ele>
        <time>2023-04-28T23:02:59Z</time>
      </trkpt>
      <trkpt lat="45.90715" lon="3.00448">
        <ele>712</ele>
        <time>2023-04-28T23:03:38Z</time>
      </trkpt>
      <trkpt lat="45.90717" lon="3.00532">
        <ele>712</ele>
        <time>2023-04-28T23:03:52Z</time>
      </trkpt>
      <trkpt lat="45.90723" lon="3.00603">
        <ele>712</ele>
        <time>2023-04-28T23:04:04Z</time>
      </trkpt>
      <trkpt lat="45.90705" lon="3.00605">
        <ele>711</ele>
        <time>2023-04-28T23:04:08Z</time>
      </trkpt>
      <trkpt lat="45.90656" lon="3.00587">
        <ele>708</ele>
        <time>2023-04-28T23:04:20Z</time>
      </trkpt>
      <trkpt lat="45.90619" lon="3.00581">
        <ele>706</ele>
        <time>2023-04-28T23:04:28Z</time>
      </trkpt>
      <trkpt lat="45.9059" lon="3.00583">
        <ele>704</ele>
        <time>2023-04-28T23:04:35Z</time>
      </trkpt>
      <trkpt lat="45.90575" lon="3.0059">
        <ele>704</ele>
        <time>2023-04-28T23:04:39Z</time>
      </trkpt>
      <trkpt lat="45.90562" lon="3.00592">
        <ele>705</ele>
        <time>2023-04-28T23:04:42Z</time>
      </trkpt>
      <trkpt lat="45.90531" lon="3.0059">
        <ele>707</ele>
        <time>2023-04-28T23:04:49Z</time>
      </trkpt>
      <trkpt lat="45.90488" lon="3.00644">
        <ele>710</ele>
        <time>2023-04-28T23:05:02Z</time>
      </trkpt>
      <trkpt lat="45.90445" lon="3.00675">
        <ele>713</ele>
        <time>2023-04-28T23:05:14Z</time>
      </trkpt>
      <trkpt lat="45.90415" lon="3.00685">
        <ele>715</ele>
        <time>2023-04-28T23:05:21Z</time>
      </trkpt>
      <trkpt lat="45.90384" lon="3.00706">
        <ele>718</ele>
        <time>2023-04-28T23:05:29Z</time>
      </trkpt>
      <trkpt lat="45.90353" lon="3.00746">
        <ele>721</ele>
        <time>2023-04-28T23:05:39Z</time>
      </trkpt>
      <trkpt lat="45.90323" lon="3.00775">
        <ele>724</ele>
        <time>2023-04-28T23:05:47Z</time>
      </trkpt>
      <trkpt lat="45.90307" lon="3.00802">
        <ele>725</ele>
        <time>2023-04-28T23:05:53Z</time>
      </trkpt>
      <trkpt lat="45.90294" lon="3.00927">
        <ele>724</ele>
        <time>2023-04-28T23:06:13Z</time>
      </trkpt>
      <trkpt lat="45.9029" lon="3.00942">
        <ele>723</ele>
        <time>2023-04-28T23:06:16Z</time>
      </trkpt>
      <trkpt lat="45.90158" lon="3.01066">
        <ele>717</ele>
        <time>2023-04-28T23:06:53Z</time>
      </trkpt>
      <trkpt lat="45.90135" lon="3.01066">
        <ele>718</ele>
        <time>2023-04-28T23:06:58Z</time>
      </trkpt>
      <trkpt lat="45.90108" lon="3.01083">
        <ele>718</ele>
        <time>2023-04-28T23:07:05Z</time>
      </trkpt>
      <trkpt lat="45.90083" lon="3.01104">
        <ele>718</ele>
        <time>2023-04-28T23:07:12Z</time>
      </trkpt>
      <trkpt lat="45.90048" lon="3.01124">
        <ele>720</ele>
        <time>2023-04-28T23:07:21Z</time>
      </trkpt>
      <trkpt lat="45.90042" lon="3.01145">
        <ele>720</ele>
        <time>2023-04-28T23:07:24Z</time>
      </trkpt>
      <trkpt lat="45.90032" lon="3.01167">
        <ele>719</ele>
        <time>2023-04-28T23:07:28Z</time>
      </trkpt>
      <trkpt lat="45.90033" lon="3.01224">
        <ele>717</ele>
        <time>2023-04-28T23:07:38Z</time>
      </trkpt>
      <trkpt lat="45.90042" lon="3.01249">
        <ele>716</ele>
        <time>2023-04-28T23:07:42Z</time>
      </trkpt>
      <trkpt lat="45.90048" lon="3.01292">
        <ele>714</ele>
        <time>2023-04-28T23:07:49Z</time>
      </trkpt>
      <trkpt lat="45.90058" lon="3.01329">
        <ele>712</ele>
        <time>2023-04-28T23:07:56Z</time>
      </trkpt>
      <trkpt lat="45.90082" lon="3.01395">
        <ele>708</ele>
        <time>2023-04-28T23:08:08Z</time>
      </trkpt>
      <trkpt lat="45.90084" lon="3.01428">
        <ele>707</ele>
        <time>2023-04-28T23:08:13Z</time>
      </trkpt>
      <trkpt lat="45.90082" lon="3.01462">
        <ele>707</ele>
        <time>2023-04-28T23:08:19Z</time>
      </trkpt>
      <trkpt lat="45.90065" lon="3.01519">
        <ele>706</ele>
        <time>2023-04-28T23:08:29Z</time>
      </trkpt>
      <trkpt lat="45.90065" lon="3.0164">
        <ele>700</ele>
        <time>2023-04-28T23:08:49Z</time>
      </trkpt>
      <trkpt lat="45.90059" lon="3.01689">
        <ele>697</ele>
        <time>2023-04-28T23:08:57Z</time>
      </trkpt>
      <trkpt lat="45.90026" lon="3.01776">
        <ele>690</ele>
        <time>2023-04-28T23:09:13Z</time>
      </trkpt>
      <trkpt lat="45.90017" lon="3.0178">
        <ele>690</ele>
        <time>2023-04-28T23:09:15Z</time>
      </trkpt>
      <trkpt lat="45.90011" lon="3.0179">
        <ele>689</ele>
        <time>2023-04-28T23:09:17Z</time>
      </trkpt>
      <trkpt lat="45.89997" lon="3.01803">
        <ele>688</ele>
        <time>2023-04-28T23:09:21Z</time>
      </trkpt>
      <trkpt lat="45.89985" lon="3.01823">
        <ele>686</ele>
        <time>2023-04-28T23:09:25Z</time>
      </trkpt>
      <trkpt lat="45.89969" lon="3.01822">
        <ele>686</ele>
        <time>2023-04-28T23:09:29Z</time>
      </trkpt>
      <trkpt lat="45.89951" lon="3.01826">
        <ele>685</ele>
        <time>2023-04-28T23:09:33Z</time>
      </trkpt>
      <trkpt lat="45.89878" lon="3.01863">
        <ele>693</ele>
        <time>2023-04-28T23:09:51Z</time>
      </trkpt>
      <trkpt lat="45.89876" lon="3.01875">
        <ele>693</ele>
        <time>2023-04-28T23:09:53Z</time>
      </trkpt>
      <trkpt lat="45.89894" lon="3.01943">
        <ele>690</ele>
        <time>2023-04-28T23:10:05Z</time>
      </trkpt>
      <trkpt lat="45.89894" lon="3.01992">
        <ele>690</ele>
        <time>2023-04-28T23:10:13Z</time>
      </trkpt>
      <trkpt lat="45.89883" lon="3.02047">
        <ele>690</ele>
        <time>2023-04-28T23:10:23Z</time>
      </trkpt>
      <trkpt lat="45.89871" lon="3.0207">
        <ele>691</ele>
        <time>2023-04-28T23:10:27Z</time>
      </trkpt>
      <trkpt lat="45.89864" lon="3.02073">
        <ele>692</ele>
        <time>2023-04-28T23:10:29Z</time>
      </trkpt>
      <trkpt lat="45.89782" lon="3.02055">
        <ele>696</ele>
        <time>2023-04-28T23:10:48Z</time>
      </trkpt>
      <trkpt lat="45.89756" lon="3.02055">
        <ele>696</ele>
        <time>2023-04-28T23:10:54Z</time>
      </trkpt>
      <trkpt lat="45.89714" lon="3.02045">
        <ele>698</ele>
        <time>2023-04-28T23:11:04Z</time>
      </trkpt>
      <trkpt lat="45.897" lon="3.02034">
        <ele>699</ele>
        <time>2023-04-28T23:11:08Z</time>
      </trkpt>
      <trkpt lat="45.89679" lon="3.02034">
        <ele>699</ele>
        <time>2023-04-28T23:11:13Z</time>
      </trkpt>
      <trkpt lat="45.89673" lon="3.02043">
        <ele>699</ele>
        <time>2023-04-28T23:11:15Z</time>
      </trkpt>
      <trkpt lat="45.89659" lon="3.02111">
        <ele>700</ele>
        <time>2023-04-28T23:11:27Z</time>
      </trkpt>
      <trkpt lat="45.8965" lon="3.02128">
        <ele>702</ele>
        <time>2023-04-28T23:11:30Z</time>
      </trkpt>
      <trkpt lat="45.89656" lon="3.02202">
        <ele>701</ele>
        <time>2023-04-28T23:11:42Z</time>
      </trkpt>
      <trkpt lat="45.89638" lon="3.02232">
        <ele>700</ele>
        <time>2023-04-28T23:11:49Z</time>
      </trkpt>
      <trkpt lat="45.89584" lon="3.02233">
        <ele>703</ele>
        <time>2023-04-28T23:12:01Z</time>
      </trkpt>
      <trkpt lat="45.89546" lon="3.02262">
        <ele>710</ele>
        <time>2023-04-28T23:12:11Z</time>
      </trkpt>
      <trkpt lat="45.8954" lon="3.02311">
        <ele>708</ele>
        <time>2023-04-28T23:12:19Z</time>
      </trkpt>
      <trkpt lat="45.89525" lon="3.02351">
        <ele>711</ele>
        <time>2023-04-28T23:12:27Z</time>
      </trkpt>
      <trkpt lat="45.89553" lon="3.02464">
        <ele>696</ele>
        <time>2023-04-28T23:12:46Z</time>
      </trkpt>
      <trkpt lat="45.89539" lon="3.026">
        <ele>696</ele>
        <time>2023-04-28T23:13:08Z</time>
      </trkpt>
      <trkpt lat="45.89554" lon="3.02645">
        <ele>690</ele>
        <time>2023-04-28T23:13:17Z</time>
      </trkpt>
      <trkpt lat="45.89575" lon="3.02688">
        <ele>684</ele>
        <time>2023-04-28T23:13:25Z</time>
      </trkpt>
      <trkpt lat="45.89593" lon="3.02715">
        <ele>679</ele>
        <time>2023-04-28T23:13:31Z</time>
      </trkpt>
      <trkpt lat="45.89584" lon="3.02726">
        <ele>679</ele>
        <time>2023-04-28T23:13:34Z</time>
      </trkpt>
      <trkpt lat="45.89544" lon="3.02742">
        <ele>683</ele>
        <time>2023-04-28T23:13:44Z</time>
      </trkpt>
      <trkpt lat="45.8951" lon="3.02788">
        <ele>679</ele>
        <time>2023-04-28T23:13:55Z</time>
      </trkpt>
      <trkpt lat="45.89491" lon="3.02821">
        <ele>676</ele>
        <time>2023-04-28T23:14:02Z</time>
      </trkpt>
      <trkpt lat="45.8948" lon="3.02888">
        <ele>668</ele>
        <time>2023-04-28T23:14:13Z</time>
      </trkpt>
      <trkpt lat="45.89468" lon="3.02918">
        <ele>666</ele>
        <time>2023-04-28T23:14:18Z</time>
      </trkpt>
      <trkpt lat="45.89462" lon="3.0295">
        <ele>664</ele>
        <time>2023-04-28T23:14:24Z</time>
      </trkpt>
      <trkpt lat="45.89446" lon="3.02981">
        <ele>664</ele>
        <time>2023-04-28T23:14:30Z</time>
      </trkpt>
      <trkpt lat="45.89434" lon="3.03015">
        <ele>662</ele>
        <time>2023-04-28T23:14:36Z</time>
      </trkpt>
      <trkpt lat="45.89403" lon="3.0308">
        <ele>657</ele>
        <time>2023-04-28T23:14:49Z</time>
      </trkpt>
      <trkpt lat="45.89379" lon="3.03201">
        <ele>655</ele>
        <time>2023-04-28T23:15:09Z</time>
      </trkpt>
      <trkpt lat="45.89386" lon="3.03243">
        <ele>656</ele>
        <time>2023-04-28T23:15:16Z</time>
      </trkpt>
      <trkpt lat="45.89387" lon="3.03281">
        <ele>656</ele>
        <time>2023-04-28T23:15:23Z</time>
      </trkpt>
      <trkpt lat="45.89384" lon="3.0337">
        <ele>657</ele>
        <time>2023-04-28T23:15:37Z</time>
      </trkpt>
      <trkpt lat="45.89379" lon="3.03407">
        <ele>658</ele>
        <time>2023-04-28T23:15:43Z</time>
      </trkpt>
      <trkpt lat="45.89365" lon="3.03398">
        <ele>659</ele>
        <time>2023-04-28T23:15:47Z</time>
      </trkpt>
      <trkpt lat="45.89356" lon="3.03415">
        <ele>660</ele>
        <time>2023-04-28T23:15:50Z</time>
      </trkpt>
      <trkpt lat="45.89334" lon="3.03435">
        <ele>662</ele>
        <time>2023-04-28T23:15:56Z</time>
      </trkpt>
      <trkpt lat="45.89319" lon="3.03425">
        <ele>659</ele>
        <time>2023-04-28T23:16:00Z</time>
      </trkpt>
      <trkpt lat="45.89297" lon="3.03435">
        <ele>654</ele>
        <time>2023-04-28T23:16:06Z</time>
      </trkpt>
      <trkpt lat="45.89285" lon="3.03431">
        <ele>652</ele>
        <time>2023-04-28T23:16:09Z</time>
      </trkpt>
      <trkpt lat="45.89278" lon="3.03423">
        <ele>652</ele>
        <time>2023-04-28T23:16:11Z</time>
      </trkpt>
      <trkpt lat="45.89273" lon="3.03426">
        <ele>650</ele>
        <time>2023-04-28T23:16:12Z</time>
      </trkpt>
      <trkpt lat="45.89272" lon="3.03436">
        <ele>649</ele>
        <time>2023-04-28T23:16:14Z</time>
      </trkpt>
      <trkpt lat="45.89277" lon="3.0347">
        <ele>648</ele>
        <time>2023-04-28T23:16:19Z</time>
      </trkpt>
      <trkpt lat="45.89278" lon="3.03504">
        <ele>645</ele>
        <time>2023-04-28T23:16:25Z</time>
      </trkpt>
      <trkpt lat="45.893" lon="3.03609">
        <ele>647</ele>
        <time>2023-04-28T23:16:43Z</time>
      </trkpt>
      <trkpt lat="45.89312" lon="3.03744">
        <ele>650</ele>
        <time>2023-04-28T23:17:05Z</time>
      </trkpt>
      <trkpt lat="45.89292" lon="3.0376">
        <ele>647</ele>
        <time>2023-04-28T23:17:10Z</time>
      </trkpt>
      <trkpt lat="45.89264" lon="3.0376">
        <ele>643</ele>
        <time>2023-04-28T23:17:17Z</time>
      </trkpt>
      <trkpt lat="45.89246" lon="3.03748">
        <ele>639</ele>
        <time>2023-04-28T23:17:21Z</time>
      </trkpt>
      <trkpt lat="45.89219" lon="3.03719">
        <ele>631</ele>
        <time>2023-04-28T23:17:29Z</time>
      </trkpt>
      <trkpt lat="45.89204" lon="3.0371">
        <ele>627</ele>
        <time>2023-04-28T23:17:33Z</time>
      </trkpt>
      <trkpt lat="45.89179" lon="3.03702">
        <ele>621</ele>
        <time>2023-04-28T23:17:39Z</time>
      </trkpt>
      <trkpt lat="45.89153" lon="3.03732">
        <ele>616</ele>
        <time>2023-04-28T23:17:47Z</time>
      </trkpt>
      <trkpt lat="45.89166" lon="3.03775">
        <ele>622</ele>
        <time>2023-04-28T23:17:54Z</time>
      </trkpt>
      <trkpt lat="45.89181" lon="3.03805">
        <ele>624</ele>
        <time>2023-04-28T23:18:00Z</time>
      </trkpt>
      <trkpt lat="45.89188" lon="3.03838">
        <ele>624</ele>
        <time>2023-04-28T23:18:06Z</time>
      </trkpt>
      <trkpt lat="45.89191" lon="3.03864">
        <ele>625</ele>
        <time>2023-04-28T23:18:10Z</time>
      </trkpt>
      <trkpt lat="45.89187" lon="3.03905">
        <ele>625</ele>
        <time>2023-04-28T23:18:17Z</time>
      </trkpt>
      <trkpt lat="45.89183" lon="3.0392">
        <ele>624</ele>
        <time>2023-04-28T23:18:19Z</time>
      </trkpt>
      <trkpt lat="45.89173" lon="3.03931">
        <ele>623</ele>
        <time>2023-04-28T23:18:22Z</time>
      </trkpt>
      <trkpt lat="45.89132" lon="3.0394">
        <ele>616</ele>
        <time>2023-04-28T23:18:32Z</time>
      </trkpt>
      <trkpt lat="45.89108" lon="3.03952">
        <ele>613</ele>
        <time>2023-04-28T23:18:38Z</time>
      </trkpt>
      <trkpt lat="45.89068" lon="3.03962">
        <ele>606</ele>
        <time>2023-04-28T23:18:48Z</time>
      </trkpt>
      <trkpt lat="45.89033" lon="3.03986">
        <ele>601</ele>
        <time>2023-04-28T23:18:57Z</time>
      </trkpt>
      <trkpt lat="45.89025" lon="3.04">
        <ele>602</ele>
        <time>2023-04-28T23:19:00Z</time>
      </trkpt>
      <trkpt lat="45.89017" lon="3.04022">
        <ele>601</ele>
        <time>2023-04-28T23:19:04Z</time>
      </trkpt>
      <trkpt lat="45.89017" lon="3.04037">
        <ele>601</ele>
        <time>2023-04-28T23:19:06Z</time>
      </trkpt>
      <trkpt lat="45.89012" lon="3.04039">
        <ele>600</ele>
        <time>2023-04-28T23:19:07Z</time>
      </trkpt>
      <trkpt lat="45.89008" lon="3.04054">
        <ele>599</ele>
        <time>2023-04-28T23:19:10Z</time>
      </trkpt>
      <trkpt lat="45.89016" lon="3.04082">
        <ele>603</ele>
        <time>2023-04-28T23:19:15Z</time>
      </trkpt>
      <trkpt lat="45.89017" lon="3.04093">
        <ele>601</ele>
        <time>2023-04-28T23:19:17Z</time>
      </trkpt>
      <trkpt lat="45.89014" lon="3.04101">
        <ele>599</ele>
        <time>2023-04-28T23:19:18Z</time>
      </trkpt>
      <trkpt lat="45.88991" lon="3.04095">
        <ele>592</ele>
        <time>2023-04-28T23:19:23Z</time>
      </trkpt>
      <trkpt lat="45.88968" lon="3.04095">
        <ele>583</ele>
        <time>2023-04-28T23:19:29Z</time>
      </trkpt>
      <trkpt lat="45.8894" lon="3.04067">
        <ele>574</ele>
        <time>2023-04-28T23:19:37Z</time>
      </trkpt>
      <trkpt lat="45.88936" lon="3.0407">
        <ele>573</ele>
        <time>2023-04-28T23:19:38Z</time>
      </trkpt>
      <trkpt lat="45.88935" lon="3.04077">
        <ele>573</ele>
        <time>2023-04-28T23:19:39Z</time>
      </trkpt>
      <trkpt lat="45.88941" lon="3.04086">
        <ele>575</ele>
        <time>2023-04-28T23:19:41Z</time>
      </trkpt>
      <trkpt lat="45.88959" lon="3.04131">
        <ele>574</ele>
        <time>2023-04-28T23:19:49Z</time>
      </trkpt>
      <trkpt lat="45.88965" lon="3.04141">
        <ele>574</ele>
        <time>2023-04-28T23:19:52Z</time>
      </trkpt>
      <trkpt lat="45.88971" lon="3.04144">
        <ele>576</ele>
        <time>2023-04-28T23:19:53Z</time>
      </trkpt>
      <trkpt lat="45.88978" lon="3.04153">
        <ele>577</ele>
        <time>2023-04-28T23:19:55Z</time>
      </trkpt>
      <trkpt lat="45.88985" lon="3.04172">
        <ele>577</ele>
        <time>2023-04-28T23:19:59Z</time>
      </trkpt>
      <trkpt lat="45.88994" lon="3.04241">
        <ele>564</ele>
        <time>2023-04-28T23:20:10Z</time>
      </trkpt>
      <trkpt lat="45.89021" lon="3.04298">
        <ele>561</ele>
        <time>2023-04-28T23:20:21Z</time>
      </trkpt>
      <trkpt lat="45.89026" lon="3.04324">
        <ele>557</ele>
        <time>2023-04-28T23:20:26Z</time>
      </trkpt>
      <trkpt lat="45.8904" lon="3.04371">
        <ele>551</ele>
        <time>2023-04-28T23:20:34Z</time>
      </trkpt>
      <trkpt lat="45.89073" lon="3.04417">
        <ele>550</ele>
        <time>2023-04-28T23:20:45Z</time>
      </trkpt>
      <trkpt lat="45.89099" lon="3.04442">
        <ele>549</ele>
        <time>2023-04-28T23:20:52Z</time>
      </trkpt>
      <trkpt lat="45.89116" lon="3.04447">
        <ele>550</ele>
        <time>2023-04-28T23:20:56Z</time>
      </trkpt>
      <trkpt lat="45.8917" lon="3.04476">
        <ele>548</ele>
        <time>2023-04-28T23:21:10Z</time>
      </trkpt>
      <trkpt lat="45.89189" lon="3.04479">
        <ele>544</ele>
        <time>2023-04-28T23:21:14Z</time>
      </trkpt>
      <trkpt lat="45.89204" lon="3.04487">
        <ele>539</ele>
        <time>2023-04-28T23:21:18Z</time>
      </trkpt>
      <trkpt lat="45.89188" lon="3.04495">
        <ele>539</ele>
        <time>2023-04-28T23:21:22Z</time>
      </trkpt>
      <trkpt lat="45.89157" lon="3.04494">
        <ele>541</ele>
        <time>2023-04-28T23:21:29Z</time>
      </trkpt>
      <trkpt lat="45.8911" lon="3.04485">
        <ele>538</ele>
        <time>2023-04-28T23:21:40Z</time>
      </trkpt>
      <trkpt lat="45.89055" lon="3.04457">
        <ele>534</ele>
        <time>2023-04-28T23:21:54Z</time>
      </trkpt>
      <trkpt lat="45.89007" lon="3.04397">
        <ele>533</ele>
        <time>2023-04-28T23:22:09Z</time>
      </trkpt>
      <trkpt lat="45.88982" lon="3.04372">
        <ele>529</ele>
        <time>2023-04-28T23:22:16Z</time>
      </trkpt>
      <trkpt lat="45.88974" lon="3.04335">
        <ele>533</ele>
        <time>2023-04-28T23:22:22Z</time>
      </trkpt>
      <trkpt lat="45.88937" lon="3.04273">
        <ele>532</ele>
        <time>2023-04-28T23:22:35Z</time>
      </trkpt>
      <trkpt lat="45.88945" lon="3.04339">
        <ele>521</ele>
        <time>2023-04-28T23:22:46Z</time>
      </trkpt>
      <trkpt lat="45.88945" lon="3.04414">
        <ele>509</ele>
        <time>2023-04-28T23:22:58Z</time>
      </trkpt>
      <trkpt lat="45.88967" lon="3.04475">
        <ele>504</ele>
        <time>2023-04-28T23:23:10Z</time>
      </trkpt>
      <trkpt lat="45.89025" lon="3.04604">
        <ele>491</ele>
        <time>2023-04-28T23:23:35Z</time>
      </trkpt>
      <trkpt lat="45.89088" lon="3.04636">
        <ele>493</ele>
        <time>2023-04-28T23:23:50Z</time>
      </trkpt>
      <trkpt lat="45.89155" lon="3.04636">
        <ele>497</ele>
        <time>2023-04-28T23:24:06Z</time>
      </trkpt>
      <trkpt lat="45.89215" lon="3.04605">
        <ele>503</ele>
        <time>2023-04-28T23:24:21Z</time>
      </trkpt>
      <trkpt lat="45.89247" lon="3.04573">
        <ele>510</ele>
        <time>2023-04-28T23:24:30Z</time>
      </trkpt>
      <trkpt lat="45.89259" lon="3.04557">
        <ele>515</ele>
        <time>2023-04-28T23:24:34Z</time>
      </trkpt>
      <trkpt lat="45.89269" lon="3.04576">
        <ele>513</ele>
        <time>2023-04-28T23:24:37Z</time>
      </trkpt>
      <trkpt lat="45.89285" lon="3.04625">
        <ele>505</ele>
        <time>2023-04-28T23:24:46Z</time>
      </trkpt>
      <trkpt lat="45.89327" lon="3.04683">
        <ele>501</ele>
        <time>2023-04-28T23:25:00Z</time>
      </trkpt>
      <trkpt lat="45.89368" lon="3.04709">
        <ele>501</ele>
        <time>2023-04-28T23:25:10Z</time>
      </trkpt>
      <trkpt lat="45.89397" lon="3.04724">
        <ele>500</ele>
        <time>2023-04-28T23:25:18Z</time>
      </trkpt>
      <trkpt lat="45.89441" lon="3.04674">
        <ele>517</ele>
        <time>2023-04-28T23:25:31Z</time>
      </trkpt>
      <trkpt lat="45.89456" lon="3.0469">
        <ele>513</ele>
        <time>2023-04-28T23:25:35Z</time>
      </trkpt>
      <trkpt lat="45.89484" lon="3.04711">
        <ele>509</ele>
        <time>2023-04-28T23:25:42Z</time>
      </trkpt>
      <trkpt lat="45.89571" lon="3.04739">
        <ele>507</ele>
        <time>2023-04-28T23:26:03Z</time>
      </trkpt>
      <trkpt lat="45.89608" lon="3.0478">
        <ele>495</ele>
        <time>2023-04-28T23:26:14Z</time>
      </trkpt>
      <trkpt lat="45.89657" lon="3.04816">
        <ele>484</ele>
        <time>2023-04-28T23:26:27Z</time>
      </trkpt>
      <trkpt lat="45.89694" lon="3.04799">
        <ele>482</ele>
        <time>2023-04-28T23:26:36Z</time>
      </trkpt>
      <trkpt lat="45.89774" lon="3.04752">
        <ele>474</ele>
        <time>2023-04-28T23:26:56Z</time>
      </trkpt>
      <trkpt lat="45.89836" lon="3.04711">
        <ele>459</ele>
        <time>2023-04-28T23:27:12Z</time>
      </trkpt>
      <trkpt lat="45.89835" lon="3.04642">
        <ele>472</ele>
        <time>2023-04-28T23:27:23Z</time>
      </trkpt>
      <trkpt lat="45.89869" lon="3.04608">
        <ele>475</ele>
        <time>2023-04-28T23:27:33Z</time>
      </trkpt>
      <trkpt lat="45.89866" lon="3.04677">
        <ele>465</ele>
        <time>2023-04-28T23:27:44Z</time>
      </trkpt>
      <trkpt lat="45.89893" lon="3.04743">
        <ele>450</ele>
        <time>2023-04-28T23:27:57Z</time>
      </trkpt>
      <trkpt lat="45.89895" lon="3.048">
        <ele>443</ele>
        <time>2023-04-28T23:28:06Z</time>
      </trkpt>
      <trkpt lat="45.89906" lon="3.0482">
        <ele>441</ele>
        <time>2023-04-28T23:28:10Z</time>
      </trkpt>
      <trkpt lat="45.89905" lon="3.04824">
        <ele>440</ele>
        <time>2023-04-28T23:28:11Z</time>
      </trkpt>
      <trkpt lat="45.89864" lon="3.04863">
        <ele>437</ele>
        <time>2023-04-28T23:28:22Z</time>
      </trkpt>
      <trkpt lat="45.89843" lon="3.04872">
        <ele>435</ele>
        <time>2023-04-28T23:28:27Z</time>
      </trkpt>
      <trkpt lat="45.89828" lon="3.04886">
        <ele>434</ele>
        <time>2023-04-28T23:28:32Z</time>
      </trkpt>
      <trkpt lat="45.89817" lon="3.04903">
        <ele>434</ele>
        <time>2023-04-28T23:28:35Z</time>
      </trkpt>
      <trkpt lat="45.89807" lon="3.04898">
        <ele>435</ele>
        <time>2023-04-28T23:28:38Z</time>
      </trkpt>
      <trkpt lat="45.89802" lon="3.04898">
        <ele>435</ele>
        <time>2023-04-28T23:28:39Z</time>
      </trkpt>
      <trkpt lat="45.89736" lon="3.04968">
        <ele>431</ele>
        <time>2023-04-28T23:28:58Z</time>
      </trkpt>
      <trkpt lat="45.89701" lon="3.05047">
        <ele>426</ele>
        <time>2023-04-28T23:29:13Z</time>
      </trkpt>
      <trkpt lat="45.89681" lon="3.05103">
        <ele>422</ele>
        <time>2023-04-28T23:29:24Z</time>
      </trkpt>
      <trkpt lat="45.89727" lon="3.05122">
        <ele>423</ele>
        <time>2023-04-28T23:29:35Z</time>
      </trkpt>
      <trkpt lat="45.8967" lon="3.05403">
        <ele>414</ele>
        <time>2023-04-28T23:30:22Z</time>
      </trkpt>
      <trkpt lat="45.8965" lon="3.05399">
        <ele>413</ele>
        <time>2023-04-28T23:30:27Z</time>
      </trkpt>
      <trkpt lat="45.89644" lon="3.054">
        <ele>413</ele>
        <time>2023-04-28T23:30:28Z</time>
      </trkpt>
      <trkpt lat="45.89636" lon="3.05408">
        <ele>413</ele>
        <time>2023-04-28T23:30:31Z</time>
      </trkpt>
      <trkpt lat="45.89609" lon="3.05465">
        <ele>412</ele>
        <time>2023-04-28T23:30:42Z</time>
      </trkpt>
      <trkpt lat="45.89601" lon="3.05476">
        <ele>412</ele>
        <time>2023-04-28T23:30:45Z</time>
      </trkpt>
      <trkpt lat="45.89591" lon="3.05515">
        <ele>411</ele>
        <time>2023-04-28T23:30:51Z</time>
      </trkpt>
      <trkpt lat="45.89575" lon="3.05501">
        <ele>411</ele>
        <time>2023-04-28T23:30:56Z</time>
      </trkpt>
      <trkpt lat="45.89566" lon="3.05528">
        <ele>410</ele>
        <time>2023-04-28T23:31:01Z</time>
      </trkpt>
      <trkpt lat="45.89541" lon="3.05558">
        <ele>409</ele>
        <time>2023-04-28T23:31:08Z</time>
      </trkpt>
      <trkpt lat="45.89514" lon="3.05576">
        <ele>408</ele>
        <time>2023-04-28T23:31:15Z</time>
      </trkpt>
      <trkpt lat="45.89499" lon="3.0563">
        <ele>406</ele>
        <time>2023-04-28T23:31:25Z</time>
      </trkpt>
      <trkpt lat="45.89498" lon="3.05654">
        <ele>406</ele>
        <time>2023-04-28T23:31:28Z</time>
      </trkpt>
      <trkpt lat="45.89504" lon="3.05686">
        <ele>405</ele>
        <time>2023-04-28T23:31:34Z</time>
      </trkpt>
      <trkpt lat="45.89507" lon="3.05774">
        <ele>404</ele>
        <time>2023-04-28T23:31:48Z</time>
      </trkpt>
      <trkpt lat="45.89503" lon="3.05813">
        <ele>404</ele>
        <time>2023-04-28T23:31:55Z</time>
      </trkpt>
      <trkpt lat="45.89504" lon="3.05846">
        <ele>404</ele>
        <time>2023-04-28T23:32:00Z</time>
      </trkpt>
      <trkpt lat="45.89489" lon="3.05953">
        <ele>402</ele>
        <time>2023-04-28T23:32:18Z</time>
      </trkpt>
      <trkpt lat="45.89455" lon="3.06041">
        <ele>400</ele>
        <time>2023-04-28T23:32:34Z</time>
      </trkpt>
      <trkpt lat="45.89447" lon="3.06082">
        <ele>399</ele>
        <time>2023-04-28T23:32:41Z</time>
      </trkpt>
      <trkpt lat="45.89452" lon="3.06198">
        <ele>397</ele>
        <time>2023-04-28T23:33:00Z</time>
      </trkpt>
      <trkpt lat="45.89425" lon="3.06204">
        <ele>397</ele>
        <time>2023-04-28T23:33:06Z</time>
      </trkpt>
      <trkpt lat="45.89262" lon="3.06298">
        <ele>397</ele>
        <time>2023-04-28T23:33:47Z</time>
      </trkpt>
      <trkpt lat="45.89037" lon="3.06451">
        <ele>395</ele>
        <time>2023-04-28T23:34:45Z</time>
      </trkpt>
      <trkpt lat="45.89037" lon="3.06456">
        <ele>395</ele>
        <time>2023-04-28T23:34:46Z</time>
      </trkpt>
      <trkpt lat="45.89033" lon="3.06458">
        <ele>395</ele>
        <time>2023-04-28T23:34:47Z</time>
      </trkpt>
      <trkpt lat="45.88949" lon="3.06457">
        <ele>393</ele>
        <time>2023-04-28T23:35:07Z</time>
      </trkpt>
      <trkpt lat="45.88933" lon="3.06453">
        <ele>393</ele>
        <time>2023-04-28T23:35:11Z</time>
      </trkpt>
      <trkpt lat="45.88902" lon="3.06451">
        <ele>392</ele>
        <time>2023-04-28T23:35:18Z</time>
      </trkpt>
      <trkpt lat="45.88867" lon="3.06457">
        <ele>391</ele>
        <time>2023-04-28T23:35:26Z</time>
      </trkpt>
      <trkpt lat="45.88848" lon="3.06453">
        <ele>390</ele>
        <time>2023-04-28T23:35:31Z</time>
      </trkpt>
      <trkpt lat="45.88821" lon="3.06379">
        <ele>391</ele>
        <time>2023-04-28T23:35:44Z</time>
      </trkpt>
      <trkpt lat="45.88783" lon="3.0632">
        <ele>394</ele>
        <time>2023-04-28T23:35:57Z</time>
      </trkpt>
      <trkpt lat="45.88775" lon="3.06334">
        <ele>394</ele>
        <time>2023-04-28T23:36:00Z</time>
      </trkpt>
      <trkpt lat="45.88765" lon="3.06344">
        <ele>393</ele>
        <time>2023-04-28T23:36:03Z</time>
      </trkpt>
      <trkpt lat="45.88743" lon="3.06357">
        <ele>393</ele>
        <time>2023-04-28T23:36:09Z</time>
      </trkpt>
      <trkpt lat="45.88702" lon="3.06375">
        <ele>392</ele>
        <time>2023-04-28T23:36:19Z</time>
      </trkpt>
      <trkpt lat="45.88673" lon="3.06383">
        <ele>391</ele>
        <time>2023-04-28T23:36:25Z</time>
      </trkpt>
      <trkpt lat="45.88657" lon="3.06368">
        <ele>392</ele>
        <time>2023-04-28T23:36:30Z</time>
      </trkpt>
      <trkpt lat="45.88643" lon="3.06367">
        <ele>392</ele>
        <time>2023-04-28T23:36:33Z</time>
      </trkpt>
      <trkpt lat="45.88631" lon="3.06378">
        <ele>391</ele>
        <time>2023-04-28T23:36:37Z</time>
      </trkpt>
      <trkpt lat="45.88627" lon="3.06395">
        <ele>390</ele>
        <time>2023-04-28T23:36:39Z</time>
      </trkpt>
      <trkpt lat="45.8861" lon="3.06413">
        <ele>388</ele>
        <time>2023-04-28T23:36:44Z</time>
      </trkpt>
      <trkpt lat="45.8857" lon="3.0643">
        <ele>388</ele>
        <time>2023-04-28T23:36:54Z</time>
      </trkpt>
      <trkpt lat="45.88462" lon="3.06494">
        <ele>388</ele>
        <time>2023-04-28T23:37:21Z</time>
      </trkpt>
      <trkpt lat="45.88409" lon="3.06508">
        <ele>388</ele>
        <time>2023-04-28T23:37:34Z</time>
      </trkpt>
      <trkpt lat="45.88353" lon="3.06527">
        <ele>392</ele>
        <time>2023-04-28T23:37:47Z</time>
      </trkpt>
      <trkpt lat="45.88306" lon="3.06551">
        <ele>393</ele>
        <time>2023-04-28T23:37:59Z</time>
      </trkpt>
      <trkpt lat="45.88258" lon="3.06599">
        <ele>392</ele>
        <time>2023-04-28T23:38:13Z</time>
      </trkpt>
      <trkpt lat="45.88203" lon="3.06646">
        <ele>393</ele>
        <time>2023-04-28T23:38:28Z</time>
      </trkpt>
      <trkpt lat="45.88319" lon="3.06813">
        <ele>391</ele>
        <time>2023-04-28T23:39:06Z</time>
      </trkpt>
      <trkpt lat="45.8834" lon="3.07006">
        <ele>389</ele>
        <time>2023-04-28T23:39:38Z</time>
      </trkpt>
      <trkpt lat="45.88376" lon="3.07202">
        <ele>384</ele>
        <time>2023-04-28T23:40:11Z</time>
      </trkpt>
      <trkpt lat="45.88379" lon="3.07266">
        <ele>383</ele>
        <time>2023-04-28T23:40:21Z</time>
      </trkpt>
      <trkpt lat="45.8833" lon="3.07315">
        <ele>385</ele>
        <time>2023-04-28T23:40:35Z</time>
      </trkpt>
      <trkpt lat="45.88268" lon="3.07311">
        <ele>388</ele>
        <time>2023-04-28T23:40:50Z</time>
      </trkpt>
      <trkpt lat="45.88158" lon="3.07336">
        <ele>391</ele>
        <time>2023-04-28T23:41:16Z</time>
      </trkpt>
      <trkpt lat="45.88107" lon="3.07338">
        <ele>391</ele>
        <time>2023-04-28T23:41:28Z</time>
      </trkpt>
      <trkpt lat="45.88212" lon="3.07536">
        <ele>388</ele>
        <time>2023-04-28T23:42:08Z</time>
      </trkpt>
      <trkpt lat="45.88246" lon="3.07679">
        <ele>385</ele>
        <time>2023-04-28T23:42:33Z</time>
      </trkpt>
      <trkpt lat="45.88206" lon="3.07736">
        <ele>383</ele>
        <time>2023-04-28T23:42:46Z</time>
      </trkpt>
      <trkpt lat="45.88064" lon="3.07847">
        <ele>381</ele>
        <time>2023-04-28T23:43:23Z</time>
      </trkpt>
      <trkpt lat="45.8794" lon="3.07755">
        <ele>383</ele>
        <time>2023-04-28T23:43:56Z</time>
      </trkpt>
      <trkpt lat="45.87697" lon="3.07583">
        <ele>387</ele>
        <time>2023-04-28T23:44:59Z</time>
      </trkpt>
      <trkpt lat="45.87525" lon="3.07669">
        <ele>388</ele>
        <time>2023-04-28T23:45:42Z</time>
      </trkpt>
      <trkpt lat="45.87507" lon="3.07752">
        <ele>389</ele>
        <time>2023-04-28T23:45:56Z</time>
      </trkpt>
      <trkpt lat="45.87501" lon="3.07835">
        <ele>385</ele>
        <time>2023-04-28T23:46:10Z</time>
      </trkpt>
      <trkpt lat="45.87529" lon="3.0796">
        <ele>385</ele>
        <time>2023-04-28T23:46:31Z</time>
      </trkpt>
    </trkseg>
  </trk>
</gpx>